Observation data for Clyde on 01/19/2019      Previous  Date  Next       Current Mesonet Observations  Soil Data  Daily Summary Page  Observations in Plain Language
KCL2 190600Z 32019G26KT 06/01 A2992 RMK A01 T00610013  RH  071%=      5-min Rain = 0
KCL2 190601Z 32017G26KT 06/01 A2992 RMK A01 T00610013  RH  072%=      5-min Rain = 0
KCL2 190602Z 32023G30KT 06/01 A2992 RMK A01 T00610014  RH  072%=      5-min Rain = 0
KCL2 190603Z 32025G33KT 06/01 A2992 RMK A01 T00610013  RH  071%=      5-min Rain = 0
KCL2 190604Z 32023G29KT 06/01 A2992 RMK A01 T00610013  RH  071%=      5-min Rain = 0
KCL2 190605Z 32020G25KT 06/01 A2992 RMK A01 T00610013  RH  071%=      5-min Rain = 0
KCL2 190606Z 32022KT 06/01 A2992 RMK A01 T00610013  RH  071%=      5-min Rain = 0
KCL2 190607Z 32022G28KT 06/01 A2992 RMK A01 T00610013  RH  071%=      5-min Rain = 0
KCL2 190608Z 32021G27KT 06/01 A2992 RMK A01 T00600013  RH  071%=      5-min Rain = 0
KCL2 190609Z 32019G25KT 06/01 A2992 RMK A01 T00610013  RH  071%=      5-min Rain = 0
KCL2 190610Z 32022G29KT 06/01 A2993 RMK A01 T00600012  RH  071%=      5-min Rain = 0
KCL2 190611Z 32023G28KT 06/01 A2993 RMK A01 T00600012  RH  071%=      5-min Rain = 0
KCL2 190612Z 32021G26KT 06/01 A2993 RMK A01 T00600012  RH  071%=      5-min Rain = 0
KCL2 190613Z 31024KT 06/01 A2993 RMK A01 T00600012  RH  071%=      5-min Rain = 0
KCL2 190614Z 32021G27KT 06/01 A2993 RMK A01 T00600011  RH  071%=      5-min Rain = 0
KCL2 190615Z 32017KT 06/01 A2993 RMK A01 T00600012  RH  071%=      5-min Rain = 0
KCL2 190616Z 32021G27KT 06/01 A2993 RMK A01 T00600012  RH  071%=      5-min Rain = 0
KCL2 190617Z 32023KT 06/01 A2993 RMK A01 T00600012  RH  071%=      5-min Rain = 0
KCL2 190618Z 32023G29KT 06/01 A2993 RMK A01 T00590011  RH  071%=      5-min Rain = 0
KCL2 190619Z 32021KT 06/01 A2993 RMK A01 T00600011  RH  071%=      5-min Rain = 0
KCL2 190620Z 33021G26KT 06/01 A2993 RMK A01 T00600012  RH  071%=      5-min Rain = 0
KCL2 190621Z 32021KT 06/01 A2993 RMK A01 T00600012  RH  071%=      5-min Rain = 0
KCL2 190622Z 33021G26KT 06/01 A2993 RMK A01 T00590011  RH  071%=      5-min Rain = 0
KCL2 190623Z 32016G24KT 06/01 A2993 RMK A01 T00590012  RH  071%=      5-min Rain = 0
KCL2 190624Z 32020KT 06/01 A2994 RMK A01 T00590013  RH  072%=      5-min Rain = 0
KCL2 190625Z 33017KT 06/01 A2994 RMK A01 T00590012  RH  072%=      5-min Rain = 0
KCL2 190626Z 32015KT 06/01 A2994 RMK A01 T00590013  RH  072%=      5-min Rain = 0
KCL2 190627Z 32016KT 06/01 A2994 RMK A01 T00590013  RH  072%=      5-min Rain = 0
KCL2 190628Z 32019G25KT 06/01 A2994 RMK A01 T00590013  RH  072%=      5-min Rain = 0
KCL2 190629Z 33026KT 06/01 A2994 RMK A01 T00590013  RH  072%=      5-min Rain = 0
KCL2 190630Z 32021G28KT 06/01 A2994 RMK A01 T00590012  RH  071%=      5-min Rain = 0
KCL2 190631Z 32023G28KT 06/01 A2994 RMK A01 T00590012  RH  072%=      5-min Rain = 0
KCL2 190632Z 32021G26KT 06/01 A2994 RMK A01 T00590011  RH  071%=      5-min Rain = 0
KCL2 190633Z 32021KT 06/01 A2994 RMK A01 T00590011  RH  071%=      5-min Rain = 0
KCL2 190634Z 32021KT 06/01 A2994 RMK A01 T00590011  RH  072%=      5-min Rain = 0
KCL2 190635Z 33022KT 06/01 A2994 RMK A01 T00590011  RH  072%=      5-min Rain = 0
KCL2 190636Z 33021G28KT 06/01 A2994 RMK A01 T00580011  RH  072%=      5-min Rain = 0
KCL2 190637Z 32018G23KT 06/01 A2994 RMK A01 T00580011  RH  072%=      5-min Rain = 0
KCL2 190638Z 32019G25KT 06/01 A2994 RMK A01 T00580012  RH  072%=      5-min Rain = 0
KCL2 190639Z 32019G24KT 06/01 A2994 RMK A01 T00580011  RH  072%=      5-min Rain = 0
KCL2 190640Z 33020KT 06/01 A2994 RMK A01 T00580011  RH  072%=      5-min Rain = 0
KCL2 190641Z 32017G22KT 06/01 A2994 RMK A01 T00580012  RH  072%=      5-min Rain = 0
KCL2 190642Z 32019G24KT 06/01 A2994 RMK A01 T00580012  RH  072%=      5-min Rain = 0
KCL2 190643Z 32021G26KT 06/01 A2994 RMK A01 T00570012  RH  072%=      5-min Rain = 0
KCL2 190644Z 33020G25KT 06/01 A2994 RMK A01 T00570011  RH  072%=      5-min Rain = 0
KCL2 190645Z 33019KT 06/01 A2994 RMK A01 T00570011  RH  072%=      5-min Rain = 0
KCL2 190646Z 32023G29KT 06/01 A2994 RMK A01 T00570012  RH  072%=      5-min Rain = 0
KCL2 190647Z 32023G29KT 06/01 A2994 RMK A01 T00570011  RH  072%=      5-min Rain = 0
KCL2 190648Z 33024KT 06/01 A2994 RMK A01 T00560010  RH  072%=      5-min Rain = 0
KCL2 190649Z 32022G27KT 06/01 A2994 RMK A01 T00560010  RH  072%=      5-min Rain = 0
KCL2 190650Z 32022KT 06/01 A2994 RMK A01 T00560010  RH  072%=      5-min Rain = 0
KCL2 190651Z 32022G27KT 06/01 A2994 RMK A01 T00560010  RH  072%=      5-min Rain = 0
KCL2 190652Z 32020G26KT 06/01 A2994 RMK A01 T00550009  RH  072%=      5-min Rain = 0
KCL2 190653Z 32017KT 06/01 A2995 RMK A01 T00550009  RH  072%=      5-min Rain = 0
KCL2 190654Z 33019G26KT 06/01 A2995 RMK A01 T00550010  RH  073%=      5-min Rain = 0
KCL2 190655Z 32021KT 06/01 A2995 RMK A01 T00550009  RH  072%=      5-min Rain = 0
KCL2 190656Z 32023G28KT 05/01 A2994 RMK A01 T00540008  RH  072%=      5-min Rain = 0
KCL2 190657Z 32021G26KT 05/01 A2995 RMK A01 T00540008  RH  072%=      5-min Rain = 0
KCL2 190658Z 32021G26KT 05/01 A2995 RMK A01 T00530008  RH  072%=      5-min Rain = 0
KCL2 190659Z 32023KT 05/01 A2995 RMK A01 T00530008  RH  072%=      5-min Rain = 0
KCL2 190700Z 33022KT 05/01 A2995 RMK A01 T00530007  RH  072%=      5-min Rain = 0
KCL2 190701Z 33020G26KT 05/01 A2995 RMK A01 T00530007  RH  073%=      5-min Rain = 0
KCL2 190702Z 32020G25KT 05/01 A2995 RMK A01 T00520007  RH  073%=      5-min Rain = 0
KCL2 190703Z 33021KT 05/01 A2995 RMK A01 T00520007  RH  073%=      5-min Rain = 0
KCL2 190704Z 33022KT 05/01 A2995 RMK A01 T00520007  RH  073%=      5-min Rain = 0
KCL2 190705Z 33018G24KT 05/01 A2995 RMK A01 T00520008  RH  073%=      5-min Rain = 0
KCL2 190706Z 33017G22KT 05/01 A2995 RMK A01 T00520008  RH  074%=      5-min Rain = 0
KCL2 190707Z 33016KT 05/01 A2995 RMK A01 T00510008  RH  074%=      5-min Rain = 0
KCL2 190708Z 32019G25KT 05/01 A2995 RMK A01 T00510009  RH  074%=      5-min Rain = 0
KCL2 190709Z 33025G30KT 05/01 A2995 RMK A01 T00500009  RH  075%=      5-min Rain = 0
KCL2 190710Z 33025G30KT 05/01 A2995 RMK A01 T00490009  RH  075%=      5-min Rain = 0
KCL2 190711Z 32024G29KT 05/01 A2995 RMK A01 T00480009  RH  076%=      5-min Rain = 0
KCL2 190712Z 33023G30KT 05/01 A2995 RMK A01 T00480009  RH  076%=      5-min Rain = 0
KCL2 190713Z 33026G31KT 05/01 A2995 RMK A01 T00480010  RH  076%=      5-min Rain = 0
KCL2 190714Z 33026G33KT 05/01 A2995 RMK A01 T00480010  RH  077%=      5-min Rain = 0
KCL2 190715Z 33022G30KT 05/01 A2995 RMK A01 T00470010  RH  077%=      5-min Rain = 0
KCL2 190716Z 33023G28KT 05/01 A2996 RMK A01 T00460011  RH  078%=      5-min Rain = 0
KCL2 190717Z 34022G29KT 05/01 A2995 RMK A01 T00450012  RH  079%=      5-min Rain = 0
KCL2 190718Z 34021G28KT 04/01 A2996 RMK A01 T00440013  RH  080%=      5-min Rain = 0
KCL2 190719Z 34021G26KT 04/01 A2996 RMK A01 T00440013  RH  080%=      5-min Rain = 0
KCL2 190720Z 34019KT 04/01 A2996 RMK A01 T00440013  RH  080%=      5-min Rain = 0
KCL2 190721Z 33023G29KT 04/01 A2996 RMK A01 T00440013  RH  080%=      5-min Rain = 0
KCL2 190722Z 33026KT 04/01 A2996 RMK A01 T00430013  RH  081%=      5-min Rain = 0
KCL2 190723Z 32022G28KT 04/01 A2996 RMK A01 T00420013  RH  081%=      5-min Rain = 0
KCL2 190724Z 32024G30KT 04/01 A2996 RMK A01 T00410013  RH  082%=      5-min Rain = 0
KCL2 190725Z 32019G26KT 04/01 A2996 RMK A01 T00400012  RH  082%=      5-min Rain = 0
KCL2 190726Z 33023G31KT 04/01 A2996 RMK A01 T00400012  RH  082%=      5-min Rain = 0
KCL2 190727Z 34020G26KT 04/01 A2996 RMK A01 T00400012  RH  082%=      5-min Rain = 0
KCL2 190728Z 33019G24KT 04/01 A2996 RMK A01 T00390012  RH  082%=      5-min Rain = 0
KCL2 190729Z 34023G32KT 04/01 A2996 RMK A01 T00390013  RH  083%=      5-min Rain = 0
KCL2 190730Z 33018KT 04/01 A2996 RMK A01 T00380013  RH  084%=      5-min Rain = 0
KCL2 190731Z 33021KT 04/01 A2996 RMK A01 T00370013  RH  085%=      5-min Rain = 0
KCL2 190732Z 33017G22KT 04/01 A2996 RMK A01 T00360013  RH  085%=      5-min Rain = 0
KCL2 190733Z 33018G23KT 04/01 A2997 RMK A01 T00360014  RH  085%=      5-min Rain = 0
KCL2 190734Z 34018G29KT 04/01 A2997 RMK A01 T00360014  RH  086%=      5-min Rain = 0
KCL2 190735Z 33025G33KT 04/01 A2997 RMK A01 T00360012  RH  085%=      5-min Rain = 0
KCL2 190736Z 34024G33KT 04/01 A2997 RMK A01 T00360011  RH  084%=      5-min Rain = 0
KCL2 190737Z 33026KT 04/01 A2997 RMK A01 T00360010  RH  084%=      5-min Rain = 0
KCL2 190738Z 33020G27KT 04/01 A2997 RMK A01 T00360010  RH  083%=      5-min Rain = 0
KCL2 190739Z 33018KT 04/01 A2997 RMK A01 T00360011  RH  084%=      5-min Rain = 0
KCL2 190740Z 33021KT 04/01 A2997 RMK A01 T00350011  RH  084%=      5-min Rain = 0
KCL2 190741Z 33023G29KT 04/01 A2997 RMK A01 T00350010  RH  084%=      5-min Rain = 0
KCL2 190742Z 33023G29KT 04/01 A2997 RMK A01 T00350010  RH  084%=      5-min Rain = 0
KCL2 190743Z 33020G26KT 04/01 A2997 RMK A01 T00350010  RH  084%=      5-min Rain = 0
KCL2 190744Z 33015KT 04/01 A2997 RMK A01 T00350010  RH  084%=      5-min Rain = 0
KCL2 190745Z 33013G20KT 04/01 A2997 RMK A01 T00350011  RH  085%=      5-min Rain = 0
KCL2 190746Z 34018KT 04/01 A2997 RMK A01 T00350012  RH  085%=      5-min Rain = 0
KCL2 190747Z 33018G25KT 03/01 A2998 RMK A01 T00340012  RH  085%=      5-min Rain = 0
KCL2 190748Z 33019G26KT 03/01 A2997 RMK A01 T00340011  RH  085%=      5-min Rain = 0
KCL2 190749Z 33015G21KT 03/01 A2998 RMK A01 T00340011  RH  085%=      5-min Rain = 0
KCL2 190750Z 33021G29KT 03/01 A2998 RMK A01 T00340012  RH  085%=      5-min Rain = 0
KCL2 190751Z 33022KT 03/01 A2998 RMK A01 T00340010  RH  084%=      5-min Rain = 0
KCL2 190752Z 33022G28KT 03/01 A2998 RMK A01 T00340010  RH  084%=      5-min Rain = 0
KCL2 190753Z 33021G27KT 03/01 A2998 RMK A01 T00340009  RH  084%=      5-min Rain = 0
KCL2 190754Z 33018G25KT 03/01 A2998 RMK A01 T00340009  RH  084%=      5-min Rain = 0
KCL2 190755Z 33022G27KT 03/01 A2998 RMK A01 T00330009  RH  084%=      5-min Rain = 0
KCL2 190756Z 33021G29KT 03/01 A2998 RMK A01 T00330008  RH  084%=      5-min Rain = 0
KCL2 190757Z 33025G30KT 03/01 A2998 RMK A01 T00320009  RH  085%=      5-min Rain = 0
KCL2 190758Z 32024G29KT 03/01 A2998 RMK A01 T00320008  RH  085%=      5-min Rain = 0
KCL2 190759Z 32021G26KT 03/01 A2998 RMK A01 T00310009  RH  085%=      5-min Rain = 0
KCL2 190800Z 32023G29KT 03/01 A2999 RMK A01 T00310009  RH  085%=      5-min Rain = 0
KCL2 190801Z 32025KT 03/01 A2998 RMK A01 T00310009  RH  085%=      5-min Rain = 0
KCL2 190802Z 33022KT 03/01 A2999 RMK A01 T00310008  RH  085%=      5-min Rain = 0
KCL2 190803Z 33019G24KT 03/01 A2999 RMK A01 T00310007  RH  084%=      5-min Rain = 0
KCL2 190804Z 33021G26KT 03/01 A2999 RMK A01 T00310006  RH  084%=      5-min Rain = 0
KCL2 190805Z 33017KT 03/01 A2999 RMK A01 T00310006  RH  083%=      5-min Rain = 0
KCL2 190806Z 33016KT 03/01 A2999 RMK A01 T00320006  RH  083%=      5-min Rain = 0
KCL2 190807Z 34018KT 03/01 A2999 RMK A01 T00320006  RH  083%=      5-min Rain = 0
KCL2 190808Z 33019KT 03/00 A2999 RMK A01 T00320004  RH  082%=      5-min Rain = 0
KCL2 190809Z 33016G21KT 03/00 A2999 RMK A01 T00330004  RH  082%=      5-min Rain = 0
KCL2 190810Z 33018G23KT 03/00 A2999 RMK A01 T00330004  RH  082%=      5-min Rain = 0
KCL2 190811Z 33019KT 03/00 A2999 RMK A01 T00330003  RH  081%=      5-min Rain = 0
KCL2 190812Z 33020G26KT 03/00 A2999 RMK A01 T00330003  RH  081%=      5-min Rain = 0
KCL2 190813Z 33016G23KT 03/00 A2999 RMK A01 T00330003  RH  081%=      5-min Rain = 0
KCL2 190814Z 33017KT 03/00 A2999 RMK A01 T00330004  RH  081%=      5-min Rain = 0
KCL2 190815Z 34018G23KT 03/00 A30 RMK A01 T00320004  RH  082%=      5-min Rain = 0
KCL2 190816Z 33018G27KT 03/00 A30 RMK A01 T00320004  RH  082%=      5-min Rain = 0
KCL2 190817Z 33025G30KT 03/00 A30 RMK A01 T00310003  RH  082%=      5-min Rain = 0
KCL2 190818Z 33022G30KT 03/00 A30 RMK A01 T00310002  RH  081%=      5-min Rain = 0
KCL2 190819Z 33021G26KT 03/00 A30 RMK A01 T00310002  RH  081%=      5-min Rain = 0
KCL2 190820Z 33019KT 03/00 A30 RMK A01 T00310001  RH  081%=      5-min Rain = 0
KCL2 190821Z 33019G26KT 03/00 A30 RMK A01 T00310002  RH  082%=      5-min Rain = 0
KCL2 190822Z 33022G28KT 03/00 A30 RMK A01 T00300002  RH  082%=      5-min Rain = 0
KCL2 190823Z 33022KT 03/00 A30 RMK A01 T00300003  RH  083%=      5-min Rain = 0
KCL2 190824Z 33023KT 03/00 A30 RMK A01 T00290004  RH  084%=      5-min Rain = 0
KCL2 190825Z 33018KT 03/00 A30 RMK A01 T00280004  RH  084%=      5-min Rain = 0
KCL2 190826Z 33019G24KT 03/01 A3001 RMK A01 T00280005  RH  085%=      5-min Rain = 0
KCL2 190827Z 33024G30KT 03/00 A3001 RMK A01 T00270004  RH  085%=      5-min Rain = 0
KCL2 190828Z 33022KT 03/00 A3001 RMK A01 T00270002  RH  084%=      5-min Rain = 0
KCL2 190829Z 33021G26KT 03/00 A3001 RMK A01 T00270002  RH  083%=      5-min Rain = 0
KCL2 190830Z 33020G26KT 03/00 A3001 RMK A01 T00270001  RH  083%=      5-min Rain = 0
KCL2 190831Z 33022G27KT 03/00 A3001 RMK A01 T00260001  RH  083%=      5-min Rain = 0
KCL2 190832Z 33022KT 03/00 A3001 RMK A01 T00260001  RH  083%=      5-min Rain = 0
KCL2 190833Z 33018G24KT 03/00 A3001 RMK A01 T00260001  RH  084%=      5-min Rain = 0
KCL2 190834Z 33018KT 03/00 A3001 RMK A01 T00260002  RH  084%=      5-min Rain = 0
KCL2 190835Z 34020KT 03/00 A3001 RMK A01 T00250002  RH  084%=      5-min Rain = 0
KCL2 190836Z 33017KT 03/00 A3001 RMK A01 T00250001  RH  084%=      5-min Rain = 0
KCL2 190837Z 33017KT 03/00 A3001 RMK A01 T00250001  RH  084%=      5-min Rain = 0
KCL2 190838Z 32018KT 03/00 A3001 RMK A01 T00250002  RH  084%=      5-min Rain = 0
KCL2 190839Z 32017KT 03/00 A3001 RMK A01 T00250001  RH  084%=      5-min Rain = 0
KCL2 190840Z 33017KT 03/00 A3001 RMK A01 T00250001  RH  084%=      5-min Rain = 0
KCL2 190841Z 33018KT 03/00 A3001 RMK A01 T00250001  RH  084%=      5-min Rain = 0
KCL2 190842Z 33020KT 03/00 A3001 RMK A01 T00260000  RH  083%=      5-min Rain = 0
KCL2 190843Z 33016KT 03/00 A3001 RMK A01 T002600-0  RH  083%=      5-min Rain = 0
KCL2 190844Z 33015G20KT 03/00 A3001 RMK A01 T00270001  RH  083%=      5-min Rain = 0
KCL2 190845Z 33014KT 03/00 A3001 RMK A01 T00270001  RH  083%=      5-min Rain = 0
KCL2 190846Z 33019G24KT 03/00 A3001 RMK A01 T002700-0  RH  082%=      5-min Rain = 0
KCL2 190847Z 33018KT 03/M00 A3001 RMK A01 T00281001  RH  081%=      5-min Rain = 0
KCL2 190848Z 33016G25KT 03/M00 A3001 RMK A01 T00281001  RH  081%=      5-min Rain = 0
KCL2 190849Z 33023G30KT 03/M00 A3001 RMK A01 T00281003  RH  080%=      5-min Rain = 0
KCL2 190850Z 33025G32KT 03/M01 A3001 RMK A01 T00281006  RH  078%=      5-min Rain = 0
KCL2 190851Z 33024G31KT 03/M01 A3001 RMK A01 T00291006  RH  078%=      5-min Rain = 0
KCL2 190852Z 33024G30KT 03/M01 A3001 RMK A01 T00291007  RH  077%=      5-min Rain = 0
KCL2 190853Z 33021G30KT 03/M01 A3001 RMK A01 T00291008  RH  077%=      5-min Rain = 0
KCL2 190854Z 33016KT 03/M01 A3002 RMK A01 T00291008  RH  077%=      5-min Rain = 0
KCL2 190855Z 33017G24KT 03/M01 A3002 RMK A01 T00291007  RH  077%=      5-min Rain = 0
KCL2 190856Z 33017G24KT 03/M01 A3002 RMK A01 T00291007  RH  077%=      5-min Rain = 0
KCL2 190857Z 33020G27KT 03/M01 A3002 RMK A01 T00291007  RH  077%=      5-min Rain = 0
KCL2 190858Z 33020G26KT 03/M01 A3002 RMK A01 T00291008  RH  077%=      5-min Rain = 0
KCL2 190859Z 33020G27KT 03/M01 A3002 RMK A01 T00291008  RH  077%=      5-min Rain = 0
KCL2 190900Z 34022G27KT 03/M01 A3002 RMK A01 T00291009  RH  076%=      5-min Rain = 0
KCL2 190901Z 34022G28KT 03/M01 A3002 RMK A01 T00291009  RH  076%=      5-min Rain = 0
KCL2 190902Z 33021G27KT 03/M01 A3002 RMK A01 T00291009  RH  076%=      5-min Rain = 0
KCL2 190903Z 33020G26KT 03/M01 A3002 RMK A01 T00291008  RH  077%=      5-min Rain = 0
KCL2 190904Z 33019KT 03/M01 A3002 RMK A01 T00291007  RH  077%=      5-min Rain = 0
KCL2 190905Z 33024G29KT 03/M01 A3002 RMK A01 T00291006  RH  078%=      5-min Rain = 0
KCL2 190906Z 33024G32KT 03/M01 A3002 RMK A01 T00281006  RH  078%=      5-min Rain = 0
KCL2 190907Z 32025G31KT 03/M01 A3003 RMK A01 T00261006  RH  079%=      5-min Rain = 0
KCL2 190908Z 32022G29KT 03/M01 A3003 RMK A01 T00251005  RH  081%=      5-min Rain = 0
KCL2 190909Z 32026KT 02/M00 A3003 RMK A01 T00241004  RH  082%=      5-min Rain = 0
KCL2 190910Z 32021KT 02/M00 A3003 RMK A01 T00231003  RH  083%=      5-min Rain = 0
KCL2 190911Z 32020G26KT 02/M00 A3003 RMK A01 T00221002  RH  084%=      5-min Rain = 0
KCL2 190912Z 32022G27KT 02/M00 A3003 RMK A01 T00221002  RH  085%=      5-min Rain = 0
KCL2 190913Z 33020KT 02/M00 A3003 RMK A01 T00211001  RH  085%=      5-min Rain = 0
KCL2 190914Z 33017G23KT 02/M00 A3003 RMK A01 T00201001  RH  086%=      5-min Rain = 0
KCL2 190915Z 32018KT 02/00 A3003 RMK A01 T002000-0  RH  087%=      5-min Rain = 0
KCL2 190916Z 33017G26KT 02/00 A3003 RMK A01 T00200000  RH  087%=      5-min Rain = 0
KCL2 190917Z 32025KT 02/00 A3003 RMK A01 T001900-0  RH  087%=      5-min Rain = 0
KCL2 190918Z 33022G27KT 02/00 A3003 RMK A01 T00190000  RH  087%=      5-min Rain = 0
KCL2 190919Z 33018G25KT 02/00 A3003 RMK A01 T00190000  RH  088%=      5-min Rain = 0
KCL2 190920Z 32020G27KT 02/00 A3003 RMK A01 T00190001  RH  088%=      5-min Rain = 0
KCL2 190921Z 32021G27KT 02/00 A3003 RMK A01 T00190001  RH  088%=      5-min Rain = 0
KCL2 190922Z 32020KT 02/00 A3004 RMK A01 T00190001  RH  088%=      5-min Rain = 0
KCL2 190923Z 32020KT 02/00 A3004 RMK A01 T00190000  RH  088%=      5-min Rain = 0
KCL2 190924Z 32023G31KT 02/00 A3004 RMK A01 T00190000  RH  087%=      5-min Rain = 0
KCL2 190925Z 32026KT 02/M00 A3004 RMK A01 T00191002  RH  086%=      5-min Rain = 0
KCL2 190926Z 32026G33KT 02/M01 A3004 RMK A01 T00191005  RH  084%=      5-min Rain = 0
KCL2 190927Z 32028G35KT 02/M01 A3004 RMK A01 T00191006  RH  084%=      5-min Rain = 0
KCL2 190928Z 32027G32KT 02/M01 A3004 RMK A01 T00191007  RH  083%=      5-min Rain = 0
KCL2 190929Z 32030G38KT 02/M01 A3004 RMK A01 T00181009  RH  082%=      5-min Rain = 0
KCL2 190930Z 33027G33KT 02/M01 A3005 RMK A01 T00171009  RH  082%=      5-min Rain = 0
KCL2 190931Z 33024G30KT 02/M01 A3005 RMK A01 T00171009  RH  083%=      5-min Rain = 0
KCL2 190932Z 33020G26KT 02/M01 A3005 RMK A01 T00161008  RH  084%=      5-min Rain = 0
KCL2 190933Z 33023G31KT 02/M01 A3005 RMK A01 T00161008  RH  084%=      5-min Rain = 0
KCL2 190934Z 33029KT 02/M01 A3005 RMK A01 T00151009  RH  084%=      5-min Rain = 0
KCL2 190935Z 33025G32KT 01/M01 A3005 RMK A01 T00141010  RH  084%=      5-min Rain = 0
KCL2 190936Z 33025G32KT 01/M01 A3005 RMK A01 T00141010  RH  084%=      5-min Rain = 0
KCL2 190937Z 34023G29KT 01/M01 A3006 RMK A01 T00131010  RH  085%=      5-min Rain = 0
KCL2 190938Z 33025G31KT 01/M01 A3005 RMK A01 T00131010  RH  085%=      5-min Rain = 0
KCL2 190939Z 33028G34KT 01/M01 A3005 RMK A01 T00131010  RH  085%=      5-min Rain = 0
KCL2 190940Z 34025G30KT 01/M01 A3005 RMK A01 T00121010  RH  085%=      5-min Rain = 0
KCL2 190941Z 34026KT 01/M01 A3006 RMK A01 T00121010  RH  085%=      5-min Rain = 0
KCL2 190942Z 34025KT 01/M01 A3006 RMK A01 T00121010  RH  085%=      5-min Rain = 0
KCL2 190943Z 34021G26KT 01/M01 A3006 RMK A01 T00121009  RH  086%=      5-min Rain = 0
KCL2 190944Z 34025G31KT 01/M01 A3006 RMK A01 T00121008  RH  086%=      5-min Rain = 0
KCL2 190945Z 33026G32KT 01/M01 A3006 RMK A01 T00121009  RH  086%=      5-min Rain = 0
KCL2 190946Z 34025G31KT 01/M01 A3006 RMK A01 T00121009  RH  086%=      5-min Rain = 0
KCL2 190947Z 34024G31KT 01/M01 A3006 RMK A01 T00121009  RH  086%=      5-min Rain = 0
KCL2 190948Z 34026G31KT 01/M01 A3006 RMK A01 T00111009  RH  086%=      5-min Rain = 0
KCL2 190949Z 34024G31KT 01/M01 A3006 RMK A01 T00111008  RH  087%=      5-min Rain = 0
KCL2 190950Z 34025G30KT 01/M01 A3006 RMK A01 T00111008  RH  087%=      5-min Rain = 0
KCL2 190951Z 34024KT 01/M01 A3006 RMK A01 T00101008  RH  088%=      5-min Rain = 0
KCL2 190952Z 34022KT 01/M01 A3006 RMK A01 T00101007  RH  088%=      5-min Rain = 0
KCL2 190953Z 34020KT 01/M01 A3006 RMK A01 T00101006  RH  089%=      5-min Rain = 0
KCL2 190954Z 34020G25KT 01/M01 A3006 RMK A01 T00101006  RH  089%=      5-min Rain = 0
KCL2 190955Z 33019KT 01/M01 A3006 RMK A01 T00091006  RH  089%=      5-min Rain = 0
KCL2 190956Z 33020G25KT 01/M01 A3006 RMK A01 T00101006  RH  090%=      5-min Rain = 0
KCL2 190957Z 34020G26KT 01/M01 A3006 RMK A01 T00091006  RH  090%=      5-min Rain = 0
KCL2 190958Z 34020KT 01/M01 A3006 RMK A01 T00091006  RH  090%=      5-min Rain = 0
KCL2 190959Z 34020G25KT 01/M01 A3006 RMK A01 T00101005  RH  090%=      5-min Rain = 0
KCL2 191000Z 34018KT 01/M01 A3006 RMK A01 T00091005  RH  090%=      5-min Rain = 0
KCL2 191001Z 34021KT 01/M00 A3006 RMK A01 T00101004  RH  090%=      5-min Rain = 0
KCL2 191002Z 34020KT 01/M01 A3006 RMK A01 T00091005  RH  090%=      5-min Rain = 0
KCL2 191003Z 34018KT 01/M01 A3007 RMK A01 T00091005  RH  091%=      5-min Rain = 0
KCL2 191004Z 34016G22KT 01/M00 A3007 RMK A01 T00091004  RH  091%=      5-min Rain = 0
KCL2 191005Z 34016G21KT 01/M00 A3006 RMK A01 T00091004  RH  091%=      5-min Rain = 0
KCL2 191006Z 33017KT 01/M00 A3007 RMK A01 T00091004  RH  091%=      5-min Rain = 0
KCL2 191007Z 33016KT 01/M00 A3007 RMK A01 T00091004  RH  091%=      5-min Rain = 0
KCL2 191008Z 34016G22KT 01/M00 A3007 RMK A01 T00091004  RH  091%=      5-min Rain = 0
KCL2 191009Z 34015G21KT 01/M00 A3007 RMK A01 T00091004  RH  091%=      5-min Rain = 0
KCL2 191010Z 34016KT 01/M00 A3007 RMK A01 T00091004  RH  091%=      5-min Rain = 0
KCL2 191011Z 33020KT 01/M00 A3007 RMK A01 T00091003  RH  091%=      5-min Rain = 0
KCL2 191012Z 33020KT 01/M00 A3007 RMK A01 T00091004  RH  091%=      5-min Rain = 0
KCL2 191013Z 33021KT 01/M00 A3007 RMK A01 T00091004  RH  091%=      5-min Rain = 0
KCL2 191014Z 33021G26KT 01/M00 A3007 RMK A01 T00101003  RH  091%=      5-min Rain = 0
KCL2 191015Z 33018G24KT 01/M00 A3007 RMK A01 T00091003  RH  091%=      5-min Rain = 0
KCL2 191016Z 33019KT 01/M00 A3007 RMK A01 T00091003  RH  091%=      5-min Rain = 0
KCL2 191017Z 34018G23KT 01/M00 A3007 RMK A01 T00101003  RH  091%=      5-min Rain = 0
KCL2 191018Z 33016KT 01/M00 A3007 RMK A01 T00091003  RH  091%=      5-min Rain = 0
KCL2 191019Z 33014KT 01/M00 A3007 RMK A01 T00091003  RH  091%=      5-min Rain = 0
KCL2 191020Z 33015KT 01/M00 A3008 RMK A01 T00101003  RH  092%=      5-min Rain = 0
KCL2 191021Z 33015KT 01/M00 A3008 RMK A01 T00101003  RH  092%=      5-min Rain = 0
KCL2 191022Z 33017KT 01/M00 A3007 RMK A01 T00091003  RH  091%=      5-min Rain = 0
KCL2 191023Z 33019KT 01/M00 A3007 RMK A01 T00091004  RH  091%=      5-min Rain = 0
KCL2 191024Z 33019G24KT 01/M00 A3007 RMK A01 T00091004  RH  091%=      5-min Rain = 0
KCL2 191025Z 33019KT 01/M00 A3007 RMK A01 T00091004  RH  091%=      5-min Rain = 0
KCL2 191026Z 33018G23KT 01/M00 A3008 RMK A01 T00101004  RH  090%=      5-min Rain = 0
KCL2 191027Z 33016KT 01/M01 A3008 RMK A01 T00101005  RH  090%=      5-min Rain = 0
KCL2 191028Z 33015G20KT 01/M01 A3008 RMK A01 T00091005  RH  090%=      5-min Rain = 0
KCL2 191029Z 34017KT 01/M00 A3008 RMK A01 T00101004  RH  090%=      5-min Rain = 0
KCL2 191030Z 33013KT 01/M01 A3008 RMK A01 T00091005  RH  090%=      5-min Rain = 0
KCL2 191031Z 33015G20KT 01/M01 A3008 RMK A01 T00091005  RH  090%=      5-min Rain = 0
KCL2 191032Z 33016G21KT 01/M01 A3008 RMK A01 T00101005  RH  090%=      5-min Rain = 0
KCL2 191033Z 32014KT 01/M01 A3008 RMK A01 T00101005  RH  090%=      5-min Rain = 0
KCL2 191034Z 32016G22KT 01/M01 A3008 RMK A01 T00091005  RH  090%=      5-min Rain = 0
KCL2 191035Z 32017KT 01/M01 A3008 RMK A01 T00091006  RH  090%=      5-min Rain = 0
KCL2 191036Z 32016KT 01/M01 A3008 RMK A01 T00101006  RH  089%=      5-min Rain = 0
KCL2 191037Z 33016KT 01/M01 A3008 RMK A01 T00101006  RH  089%=      5-min Rain = 0
KCL2 191038Z 33015KT 01/M01 A3008 RMK A01 T00101006  RH  089%=      5-min Rain = 0
KCL2 191039Z 33016KT 01/M01 A3008 RMK A01 T00101006  RH  089%=      5-min Rain = 0
KCL2 191040Z 33016G21KT 01/M01 A3008 RMK A01 T00101005  RH  089%=      5-min Rain = 0
KCL2 191041Z 33017KT 01/M01 A3008 RMK A01 T00101005  RH  089%=      5-min Rain = 0
KCL2 191042Z 33019G24KT 01/M01 A3008 RMK A01 T00101006  RH  089%=      5-min Rain = 0
KCL2 191043Z 32017KT 01/M01 A3008 RMK A01 T00111006  RH  089%=      5-min Rain = 0
KCL2 191044Z 33017G23KT 01/M01 A3008 RMK A01 T00111006  RH  088%=      5-min Rain = 0
KCL2 191045Z 32019KT 01/M01 A3008 RMK A01 T00111006  RH  088%=      5-min Rain = 0
KCL2 191046Z 33021G26KT 01/M01 A3008 RMK A01 T00111007  RH  088%=      5-min Rain = 0
KCL2 191047Z 33020G25KT 01/M01 A3008 RMK A01 T00121008  RH  087%=      5-min Rain = 0
KCL2 191048Z 33017G24KT 01/M01 A3008 RMK A01 T00121008  RH  087%=      5-min Rain = 0
KCL2 191049Z 34021KT 01/M01 A3008 RMK A01 T00121008  RH  086%=      5-min Rain = 0
KCL2 191050Z 33019G25KT 01/M01 A3008 RMK A01 T00121008  RH  086%=      5-min Rain = 0
KCL2 191051Z 32019KT 01/M01 A3008 RMK A01 T00121008  RH  086%=      5-min Rain = 0
KCL2 191052Z 32017KT 01/M01 A3008 RMK A01 T00121009  RH  086%=      5-min Rain = 0
KCL2 191053Z 33020KT 01/M01 A3008 RMK A01 T00121009  RH  086%=      5-min Rain = 0
KCL2 191054Z 33019KT 01/M01 A3008 RMK A01 T00121009  RH  086%=      5-min Rain = 0
KCL2 191055Z 32014KT 01/M01 A3008 RMK A01 T00131009  RH  085%=      5-min Rain = 0
KCL2 191056Z 33018KT 01/M01 A3008 RMK A01 T00131009  RH  086%=      5-min Rain = 0
KCL2 191057Z 32018KT 01/M01 A3008 RMK A01 T00131009  RH  085%=      5-min Rain = 0
KCL2 191058Z 32016G22KT 01/M01 A3009 RMK A01 T00131009  RH  085%=      5-min Rain = 0
KCL2 191059Z 33013KT 01/M01 A3009 RMK A01 T00131009  RH  085%=      5-min Rain = 0
KCL2 191100Z 33013KT 01/M01 A3009 RMK A01 T00131009  RH  086%=      5-min Rain = 0
KCL2 191101Z 32013G18KT 01/M01 A3009 RMK A01 T00131008  RH  086%=      5-min Rain = 0
KCL2 191102Z 32018KT 01/M01 A3009 RMK A01 T00131008  RH  086%=      5-min Rain = 0
KCL2 191103Z 33019KT 01/M01 A3009 RMK A01 T00131009  RH  085%=      5-min Rain = 0
KCL2 191104Z 32016KT 01/M01 A3009 RMK A01 T00131010  RH  085%=      5-min Rain = 0
KCL2 191105Z 32016G22KT 01/M01 A3009 RMK A01 T00131010  RH  085%=      5-min Rain = 0
KCL2 191106Z 32018KT 01/M01 A3008 RMK A01 T00131010  RH  085%=      5-min Rain = 0
KCL2 191107Z 33016KT 01/M01 A3009 RMK A01 T00131010  RH  085%=      5-min Rain = 0
KCL2 191108Z 32012KT 01/M01 A3009 RMK A01 T00131010  RH  085%=      5-min Rain = 0
KCL2 191109Z 33016G22KT 01/M01 A3009 RMK A01 T00131009  RH  085%=      5-min Rain = 0
KCL2 191110Z 33014KT 01/M01 A3009 RMK A01 T00131010  RH  085%=      5-min Rain = 0
KCL2 191111Z 32014G19KT 01/M01 A3009 RMK A01 T00131009  RH  085%=      5-min Rain = 0
KCL2 191112Z 32013KT 01/M01 A3009 RMK A01 T00131009  RH  085%=      5-min Rain = 0
KCL2 191113Z 32011KT 01/M01 A3009 RMK A01 T00131009  RH  085%=      5-min Rain = 0
KCL2 191114Z 32011KT 01/M01 A3009 RMK A01 T00131009  RH  085%=      5-min Rain = 0
KCL2 191115Z 32013KT 01/M01 A3009 RMK A01 T00141008  RH  085%=      5-min Rain = 0
KCL2 191116Z 32017KT 01/M01 A3009 RMK A01 T00141008  RH  085%=      5-min Rain = 0
KCL2 191117Z 32015KT 01/M01 A3009 RMK A01 T00141009  RH  085%=      5-min Rain = 0
KCL2 191118Z 32013KT 02/M01 A3009 RMK A01 T00151008  RH  085%=      5-min Rain = 0
KCL2 191119Z 32013KT 01/M01 A3009 RMK A01 T00141009  RH  085%=      5-min Rain = 0
KCL2 191120Z 31014G19KT 01/M01 A3009 RMK A01 T00141009  RH  085%=      5-min Rain = 0
KCL2 191121Z 32017KT 02/M01 A3009 RMK A01 T00151009  RH  085%=      5-min Rain = 0
KCL2 191122Z 32018KT 02/M01 A3009 RMK A01 T00151009  RH  084%=      5-min Rain = 0
KCL2 191123Z 32016KT 01/M01 A3009 RMK A01 T00141010  RH  084%=      5-min Rain = 0
KCL2 191124Z 32016KT 02/M01 A301 RMK A01 T00151009  RH  084%=      5-min Rain = 0
KCL2 191125Z 32014G19KT 02/M01 A301 RMK A01 T00151009  RH  084%=      5-min Rain = 0
KCL2 191126Z 32015KT 02/M01 A301 RMK A01 T00151009  RH  084%=      5-min Rain = 0
KCL2 191127Z 32014G22KT 02/M01 A301 RMK A01 T00151009  RH  084%=      5-min Rain = 0
KCL2 191128Z 32016G22KT 02/M01 A301 RMK A01 T00151009  RH  084%=      5-min Rain = 0
KCL2 191129Z 32017KT 02/M01 A301 RMK A01 T00161010  RH  083%=      5-min Rain = 0
KCL2 191130Z 32018KT 02/M01 A301 RMK A01 T00161010  RH  083%=      5-min Rain = 0
KCL2 191131Z 33016KT 02/M01 A301 RMK A01 T00161010  RH  083%=      5-min Rain = 0
KCL2 191132Z 31012G17KT 02/M01 A301 RMK A01 T00161009  RH  083%=      5-min Rain = 0
KCL2 191133Z 32016KT 02/M01 A301 RMK A01 T00161009  RH  083%=      5-min Rain = 0
KCL2 191134Z 32016KT 02/M01 A301 RMK A01 T00161009  RH  083%=      5-min Rain = 0
KCL2 191135Z 32014G19KT 02/M01 A301 RMK A01 T00161010  RH  083%=      5-min Rain = 0
KCL2 191136Z 32015KT 02/M01 A301 RMK A01 T00161010  RH  083%=      5-min Rain = 0
KCL2 191137Z 32014KT 02/M01 A301 RMK A01 T00161010  RH  083%=      5-min Rain = 0
KCL2 191138Z 31015KT 02/M01 A301 RMK A01 T00151010  RH  083%=      5-min Rain = 0
KCL2 191139Z 32020G25KT 02/M01 A301 RMK A01 T00151010  RH  083%=      5-min Rain = 0
KCL2 191140Z 32016G21KT 02/M01 A301 RMK A01 T00161010  RH  083%=      5-min Rain = 0
KCL2 191141Z 32015KT 02/M01 A301 RMK A01 T00161010  RH  083%=      5-min Rain = 0
KCL2 191142Z 32016G22KT 02/M01 A301 RMK A01 T00161010  RH  083%=      5-min Rain = 0
KCL2 191143Z 32018KT 02/M01 A3011 RMK A01 T00161010  RH  083%=      5-min Rain = 0
KCL2 191144Z 33016KT 02/M01 A3011 RMK A01 T00161010  RH  083%=      5-min Rain = 0
KCL2 191145Z 33014KT 02/M01 A3011 RMK A01 T00151011  RH  083%=      5-min Rain = 0
KCL2 191146Z 32015KT 02/M01 A3011 RMK A01 T00151011  RH  083%=      5-min Rain = 0
KCL2 191147Z 32013G18KT 02/M01 A3011 RMK A01 T00151011  RH  083%=      5-min Rain = 0
KCL2 191148Z 32016KT 01/M01 A3011 RMK A01 T00141011  RH  083%=      5-min Rain = 0
KCL2 191149Z 32013KT 01/M01 A3011 RMK A01 T00141011  RH  083%=      5-min Rain = 0
KCL2 191150Z 32016KT 02/M01 A3011 RMK A01 T00151011  RH  083%=      5-min Rain = 0
KCL2 191151Z 32018KT 02/M01 A3011 RMK A01 T00151010  RH  083%=      5-min Rain = 0
KCL2 191152Z 32016KT 02/M01 A3011 RMK A01 T00161010  RH  083%=      5-min Rain = 0
KCL2 191153Z 33017KT 02/M01 A3012 RMK A01 T00171010  RH  082%=      5-min Rain = 0
KCL2 191154Z 32014KT 02/M01 A3012 RMK A01 T00171010  RH  082%=      5-min Rain = 0
KCL2 191155Z 33014KT 02/M01 A3012 RMK A01 T00171010  RH  082%=      5-min Rain = 0
KCL2 191156Z 32012KT 02/M01 A3012 RMK A01 T00181010  RH  082%=      5-min Rain = 0
KCL2 191157Z 33013KT 02/M01 A3012 RMK A01 T00181010  RH  082%=      5-min Rain = 0
KCL2 191158Z 32015KT 02/M01 A3012 RMK A01 T00181010  RH  082%=      5-min Rain = 0
KCL2 191159Z 32013KT 02/M01 A3012 RMK A01 T00181010  RH  082%=      5-min Rain = 0
KCL2 191200Z 32016G23KT 02/M01 A3012 RMK A01 T00181010  RH  082%=      5-min Rain = 0
KCL2 191201Z 33018KT 02/M01 A3012 RMK A01 T00191011  RH  081%=      5-min Rain = 0
KCL2 191202Z 32018KT 02/M01 A3012 RMK A01 T00191011  RH  081%=      5-min Rain = 0
KCL2 191203Z 32018G23KT 02/M01 A3012 RMK A01 T00191011  RH  080%=      5-min Rain = 0
KCL2 191204Z 33016KT 02/M01 A3012 RMK A01 T00201011  RH  080%=      5-min Rain = 0
KCL2 191205Z 33016G21KT 02/M01 A3012 RMK A01 T00201011  RH  080%=      5-min Rain = 0
KCL2 191206Z 33016G21KT 02/M01 A3012 RMK A01 T00201012  RH  079%=      5-min Rain = 0
KCL2 191207Z 33017KT 02/M01 A3012 RMK A01 T00211012  RH  079%=      5-min Rain = 0
KCL2 191208Z 33014G20KT 02/M01 A3012 RMK A01 T00211012  RH  079%=      5-min Rain = 0
KCL2 191209Z 32018G23KT 02/M01 A3012 RMK A01 T00211011  RH  079%=      5-min Rain = 0
KCL2 191210Z 33018KT 02/M01 A3012 RMK A01 T00211012  RH  079%=      5-min Rain = 0
KCL2 191211Z 33015G20KT 02/M01 A3012 RMK A01 T00211012  RH  079%=      5-min Rain = 0
KCL2 191212Z 33020G26KT 02/M01 A3012 RMK A01 T00211012  RH  079%=      5-min Rain = 0
KCL2 191213Z 33019KT 02/M01 A3012 RMK A01 T00211012  RH  078%=      5-min Rain = 0
KCL2 191214Z 32016KT 02/M01 A3012 RMK A01 T00221012  RH  078%=      5-min Rain = 0
KCL2 191215Z 32016KT 02/M01 A3012 RMK A01 T00221012  RH  078%=      5-min Rain = 0
KCL2 191216Z 32017KT 02/M01 A3012 RMK A01 T00221012  RH  078%=      5-min Rain = 0
KCL2 191217Z 33015KT 02/M01 A3013 RMK A01 T00221012  RH  078%=      5-min Rain = 0
KCL2 191218Z 33017KT 02/M01 A3013 RMK A01 T00221012  RH  078%=      5-min Rain = 0
KCL2 191219Z 32015G24KT 02/M01 A3013 RMK A01 T00221012  RH  078%=      5-min Rain = 0
KCL2 191220Z 33020G25KT 02/M01 A3013 RMK A01 T00221012  RH  078%=      5-min Rain = 0
KCL2 191221Z 32019G27KT 02/M01 A3013 RMK A01 T00221012  RH  078%=      5-min Rain = 0
KCL2 191222Z 32019KT 02/M01 A3013 RMK A01 T00221013  RH  078%=      5-min Rain = 0
KCL2 191223Z 33019KT 02/M01 A3013 RMK A01 T00221013  RH  078%=      5-min Rain = 0
KCL2 191224Z 32015G20KT 02/M01 A3013 RMK A01 T00221013  RH  078%=      5-min Rain = 0
KCL2 191225Z 32017G23KT 02/M01 A3013 RMK A01 T00221012  RH  078%=      5-min Rain = 0
KCL2 191226Z 32018KT 02/M01 A3013 RMK A01 T00221012  RH  078%=      5-min Rain = 0
KCL2 191227Z 32018KT 02/M01 A3013 RMK A01 T00221012  RH  078%=      5-min Rain = 0
KCL2 191228Z 33018KT 02/M01 A3013 RMK A01 T00231012  RH  078%=      5-min Rain = 0
KCL2 191229Z 33015KT 02/M01 A3013 RMK A01 T00221012  RH  078%=      5-min Rain = 0
KCL2 191230Z 32012KT 02/M01 A3013 RMK A01 T00221012  RH  078%=      5-min Rain = 0
KCL2 191231Z 32017KT 02/M01 A3013 RMK A01 T00221012  RH  078%=      5-min Rain = 0
KCL2 191232Z 32017G22KT 02/M01 A3013 RMK A01 T00221013  RH  078%=      5-min Rain = 0
KCL2 191233Z 32018KT 02/M01 A3013 RMK A01 T00221012  RH  078%=      5-min Rain = 0
KCL2 191234Z 33019KT 02/M01 A3013 RMK A01 T00221012  RH  078%=      5-min Rain = 0
KCL2 191235Z 33020G26KT 02/M01 A3013 RMK A01 T00221012  RH  078%=      5-min Rain = 0
KCL2 191236Z 32017KT 02/M01 A3013 RMK A01 T00221013  RH  077%=      5-min Rain = 0
KCL2 191237Z 32018G24KT 02/M01 A3013 RMK A01 T00221013  RH  078%=      5-min Rain = 0
KCL2 191238Z 33020G26KT 02/M01 A3013 RMK A01 T00231012  RH  078%=      5-min Rain = 0
KCL2 191239Z 32023G29KT 02/M02 A3014 RMK A01 T00221015  RH  076%=      5-min Rain = 0
KCL2 191240Z 33023KT 02/M02 A3014 RMK A01 T00221016  RH  076%=      5-min Rain = 0
KCL2 191241Z 33021G27KT 02/M02 A3014 RMK A01 T00221017  RH  075%=      5-min Rain = 0
KCL2 191242Z 33023G28KT 02/M02 A3014 RMK A01 T00221017  RH  075%=      5-min Rain = 0
KCL2 191243Z 33017G23KT 02/M02 A3014 RMK A01 T00221018  RH  075%=      5-min Rain = 0
KCL2 191244Z 33017G22KT 02/M02 A3014 RMK A01 T00221018  RH  075%=      5-min Rain = 0
KCL2 191245Z 33025G30KT 02/M02 A3014 RMK A01 T00221020  RH  074%=      5-min Rain = 0
KCL2 191246Z 32024G29KT 02/M03 A3014 RMK A01 T00211025  RH  072%=      5-min Rain = 0
KCL2 191247Z 33020G28KT 02/M03 A3014 RMK A01 T00211027  RH  071%=      5-min Rain = 0
KCL2 191248Z 34021G26KT 02/M03 A3014 RMK A01 T00201027  RH  071%=      5-min Rain = 0
KCL2 191249Z 34024G31KT 02/M03 A3015 RMK A01 T00201028  RH  070%=      5-min Rain = 0
KCL2 191250Z 34027G35KT 02/M03 A3015 RMK A01 T00201030  RH  069%=      5-min Rain = 0
KCL2 191251Z 33030G35KT 02/M03 A3015 RMK A01 T00191033  RH  068%=      5-min Rain = 0
KCL2 191252Z 34023KT 02/M03 A3015 RMK A01 T00191034  RH  068%=      5-min Rain = 0
KCL2 191253Z 34024G30KT 02/M03 A3015 RMK A01 T00191034  RH  068%=      5-min Rain = 0
KCL2 191254Z 34029G35KT 02/M03 A3015 RMK A01 T00191034  RH  068%=      5-min Rain = 0
KCL2 191255Z 33026G31KT 02/M03 A3015 RMK A01 T00191034  RH  068%=      5-min Rain = 0
KCL2 191256Z 34024G29KT 02/M03 A3015 RMK A01 T00191034  RH  068%=      5-min Rain = 0
KCL2 191257Z 34021G26KT 02/M03 A3015 RMK A01 T00181034  RH  068%=      5-min Rain = 0
KCL2 191258Z 34017KT 02/M03 A3015 RMK A01 T00181034  RH  069%=      5-min Rain = 0
KCL2 191259Z 34017KT 02/M03 A3015 RMK A01 T00181033  RH  069%=      5-min Rain = 0
KCL2 191300Z 34019KT 02/M03 A3015 RMK A01 T00171033  RH  069%=      5-min Rain = 0
KCL2 191301Z 33018G26KT 02/M03 A3015 RMK A01 T00171032  RH  070%=      5-min Rain = 0
KCL2 191302Z 34015G23KT 02/M03 A3016 RMK A01 T00171032  RH  070%=      5-min Rain = 0
KCL2 191303Z 33019KT 02/M03 A3015 RMK A01 T00161032  RH  070%=      5-min Rain = 0
KCL2 191304Z 34016G21KT 02/M03 A3016 RMK A01 T00161033  RH  070%=      5-min Rain = 0
KCL2 191305Z 34019G24KT 02/M03 A3016 RMK A01 T00161032  RH  070%=      5-min Rain = 0
KCL2 191306Z 34016G21KT 02/M03 A3016 RMK A01 T00161033  RH  070%=      5-min Rain = 0
KCL2 191307Z 33020KT 02/M03 A3016 RMK A01 T00161033  RH  070%=      5-min Rain = 0
KCL2 191308Z 34024G29KT 02/M03 A3016 RMK A01 T00161033  RH  070%=      5-min Rain = 0
KCL2 191309Z 34021G26KT 02/M03 A3016 RMK A01 T00151034  RH  070%=      5-min Rain = 0
KCL2 191310Z 34016KT 02/M03 A3016 RMK A01 T00151034  RH  070%=      5-min Rain = 0
KCL2 191311Z 34017G25KT 02/M03 A3016 RMK A01 T00151033  RH  070%=      5-min Rain = 0
KCL2 191312Z 34021G26KT 02/M03 A3016 RMK A01 T00151033  RH  070%=      5-min Rain = 0
KCL2 191313Z 34019KT 02/M03 A3016 RMK A01 T00151034  RH  070%=      5-min Rain = 0
KCL2 191314Z 33021KT 02/M03 A3016 RMK A01 T00151034  RH  070%=      5-min Rain = 0
KCL2 191315Z 33019G25KT 02/M03 A3016 RMK A01 T00151033  RH  070%=      5-min Rain = 0
KCL2 191316Z 34018KT 01/M03 A3016 RMK A01 T00141033  RH  071%=      5-min Rain = 0
KCL2 191317Z 34018G23KT 01/M03 A3016 RMK A01 T00141032  RH  071%=      5-min Rain = 0
KCL2 191318Z 34018KT 01/M03 A3016 RMK A01 T00141032  RH  071%=      5-min Rain = 0
KCL2 191319Z 34018KT 01/M03 A3016 RMK A01 T00141032  RH  071%=      5-min Rain = 0
KCL2 191320Z 34020KT 01/M03 A3016 RMK A01 T00141032  RH  072%=      5-min Rain = 0
KCL2 191321Z 34022G27KT 01/M03 A3016 RMK A01 T00141031  RH  072%=      5-min Rain = 0
KCL2 191322Z 34023KT 01/M03 A3016 RMK A01 T00141031  RH  072%=      5-min Rain = 0
KCL2 191323Z 33024G30KT 01/M03 A3017 RMK A01 T00141031  RH  072%=      5-min Rain = 0
KCL2 191324Z 33026G32KT 01/M03 A3017 RMK A01 T00141032  RH  072%=      5-min Rain = 0
KCL2 191325Z 33022G27KT 01/M03 A3017 RMK A01 T00131033  RH  071%=      5-min Rain = 0
KCL2 191326Z 33020KT 01/M03 A3017 RMK A01 T00131033  RH  071%=      5-min Rain = 0
KCL2 191327Z 32020G25KT 01/M03 A3017 RMK A01 T00121033  RH  072%=      5-min Rain = 0
KCL2 191328Z 32022KT 01/M03 A3017 RMK A01 T00121034  RH  071%=      5-min Rain = 0
KCL2 191329Z 32018G23KT 01/M04 A3017 RMK A01 T00111035  RH  071%=      5-min Rain = 0
KCL2 191330Z 33020KT 01/M04 A3017 RMK A01 T00101036  RH  071%=      5-min Rain = 0
KCL2 191331Z 32018KT 01/M04 A3017 RMK A01 T00101036  RH  071%=      5-min Rain = 0
KCL2 191332Z 33019KT 01/M04 A3017 RMK A01 T00091037  RH  071%=      5-min Rain = 0
KCL2 191333Z 33019KT 01/M04 A3017 RMK A01 T00081037  RH  072%=      5-min Rain = 0
KCL2 191334Z 33017G22KT 01/M04 A3017 RMK A01 T00081037  RH  072%=      5-min Rain = 0
KCL2 191335Z 33024G30KT 01/M04 A3017 RMK A01 T00081037  RH  072%=      5-min Rain = 0
KCL2 191336Z 33024G29KT 01/M04 A3017 RMK A01 T00071038  RH  072%=      5-min Rain = 0
KCL2 191337Z 32022G28KT 01/M04 A3018 RMK A01 T00071039  RH  071%=      5-min Rain = 0
KCL2 191338Z 33020G27KT 01/M04 A3018 RMK A01 T00061039  RH  071%=      5-min Rain = 0
KCL2 191339Z 33024KT 01/M04 A3018 RMK A01 T00061040  RH  071%=      5-min Rain = 0
KCL2 191340Z 33018KT 01/M04 A3018 RMK A01 T00051040  RH  071%=      5-min Rain = 0
KCL2 191341Z 33017KT 00/M04 A3018 RMK A01 T00041041  RH  072%=      5-min Rain = 0
KCL2 191342Z 33018KT 00/M04 A3018 RMK A01 T00041041  RH  072%=      5-min Rain = 0
KCL2 191343Z 33021KT 00/M04 A3018 RMK A01 T00031042  RH  072%=      5-min Rain = 0
KCL2 191344Z 33020G26KT 00/M04 A3018 RMK A01 T00031042  RH  072%=      5-min Rain = 0
KCL2 191345Z 33020KT 00/M04 A3018 RMK A01 T00031043  RH  071%=      5-min Rain = 0
KCL2 191346Z 33021G27KT 00/M04 A3018 RMK A01 T00021044  RH  071%=      5-min Rain = 0
KCL2 191347Z 33020G25KT 00/M04 A3018 RMK A01 T00021044  RH  071%=      5-min Rain = 0
KCL2 191348Z 33020KT 00/M04 A3018 RMK A01 T00021044  RH  071%=      5-min Rain = 0
KCL2 191349Z 34021G28KT 00/M04 A3018 RMK A01 T00021044  RH  071%=      5-min Rain = 0
KCL2 191350Z 33020G25KT 00/M04 A3018 RMK A01 T00021044  RH  071%=      5-min Rain = 0
KCL2 191351Z 34025G30KT 00/M05 A3018 RMK A01 T00021045  RH  071%=      5-min Rain = 0
KCL2 191352Z 33024G29KT 00/M05 A3018 RMK A01 T00021046  RH  070%=      5-min Rain = 0
KCL2 191353Z 33023G29KT 00/M05 A3018 RMK A01 T00021047  RH  070%=      5-min Rain = 0
KCL2 191354Z 33023KT 00/M05 A3018 RMK A01 T00021047  RH  070%=      5-min Rain = 0
KCL2 191355Z 33023G28KT 00/M05 A3018 RMK A01 T00021047  RH  070%=      5-min Rain = 0
KCL2 191356Z 33023G30KT 00/M05 A3018 RMK A01 T00021047  RH  070%=      5-min Rain = 0
KCL2 191357Z 33023G28KT 00/M05 A3018 RMK A01 T00021047  RH  070%=      5-min Rain = 0
KCL2 191358Z 34020G29KT 00/M05 A3019 RMK A01 T00021047  RH  070%=      5-min Rain = 0
KCL2 191359Z 33022G27KT 00/M05 A3019 RMK A01 T00011047  RH  070%=      5-min Rain = 0
KCL2 191400Z 34028G33KT 00/M05 A3018 RMK A01 T00011047  RH  070%=      5-min Rain = 0
KCL2 191401Z 34024KT 00/M05 A3019 RMK A01 T00011048  RH  070%=      5-min Rain = 0
KCL2 191402Z 33018G23KT 00/M05 A3019 RMK A01 T00011047  RH  070%=      5-min Rain = 0
KCL2 191403Z 33015G21KT 00/M05 A3019 RMK A01 T00011046  RH  070%=      5-min Rain = 0
KCL2 191404Z 33019G24KT 00/05 A3019 RMK A01 T00000-47  RH  071%=      5-min Rain = 0
KCL2 191405Z 34023G29KT 00/05 A3019 RMK A01 T00000-47  RH  071%=      5-min Rain = 0
KCL2 191406Z 34020KT 00/05 A3019 RMK A01 T00000-47  RH  071%=      5-min Rain = 0
KCL2 191407Z 33017KT 00/05 A3019 RMK A01 T00000-47  RH  071%=      5-min Rain = 0
KCL2 191408Z 33021G26KT 00/05 A3019 RMK A01 T00000-47  RH  070%=      5-min Rain = 0
KCL2 191409Z 33021KT 00/05 A3019 RMK A01 T00000-48  RH  070%=      5-min Rain = 0
KCL2 191410Z 33020G29KT 00/05 A3019 RMK A01 T00000-48  RH  070%=      5-min Rain = 0
KCL2 191411Z 34017KT 00/M05 A3019 RMK A01 T00011047  RH  070%=      5-min Rain = 0
KCL2 191412Z 33019G25KT 00/M05 A3019 RMK A01 T00011047  RH  070%=      5-min Rain = 0
KCL2 191413Z 33018G23KT 00/M05 A3019 RMK A01 T00011047  RH  070%=      5-min Rain = 0
KCL2 191414Z 34021G27KT 00/M05 A3019 RMK A01 T00011047  RH  070%=      5-min Rain = 0
KCL2 191415Z 34020G25KT 00/M05 A3019 RMK A01 T00011047  RH  070%=      5-min Rain = 0
KCL2 191416Z 34019G26KT 00/M05 A3019 RMK A01 T00011047  RH  070%=      5-min Rain = 0
KCL2 191417Z 34021KT 00/M05 A3019 RMK A01 T00011047  RH  070%=      5-min Rain = 0
KCL2 191418Z 34018G25KT 00/M05 A3019 RMK A01 T00011047  RH  070%=      5-min Rain = 0
KCL2 191419Z 34019KT 00/M05 A3019 RMK A01 T00011047  RH  070%=      5-min Rain = 0
KCL2 191420Z 33019G24KT 00/M05 A3019 RMK A01 T00011046  RH  070%=      5-min Rain = 0
KCL2 191421Z 34019KT 00/M05 A3019 RMK A01 T00011046  RH  070%=      5-min Rain = 0
KCL2 191422Z 33020KT 00/M05 A302 RMK A01 T00021046  RH  070%=      5-min Rain = 0
KCL2 191423Z 34018G23KT 00/M05 A302 RMK A01 T00021046  RH  070%=      5-min Rain = 0
KCL2 191424Z 33018G23KT 00/M05 A302 RMK A01 T00021046  RH  070%=      5-min Rain = 0
KCL2 191425Z 33020KT 00/M05 A3019 RMK A01 T00021046  RH  070%=      5-min Rain = 0
KCL2 191426Z 33018KT 00/M05 A302 RMK A01 T00021046  RH  070%=      5-min Rain = 0
KCL2 191427Z 33017G22KT 00/M05 A302 RMK A01 T00021046  RH  070%=      5-min Rain = 0
KCL2 191428Z 33016KT 00/M05 A302 RMK A01 T00021045  RH  070%=      5-min Rain = 0
KCL2 191429Z 33016G22KT 00/M05 A302 RMK A01 T00031045  RH  070%=      5-min Rain = 0
KCL2 191430Z 33017KT 00/M05 A302 RMK A01 T00031045  RH  070%=      5-min Rain = 0
KCL2 191431Z 33018G24KT 00/M05 A302 RMK A01 T00031045  RH  070%=      5-min Rain = 0
KCL2 191432Z 33020KT 00/M05 A302 RMK A01 T00031045  RH  070%=      5-min Rain = 0
KCL2 191433Z 32018G23KT 00/M05 A302 RMK A01 T00031046  RH  070%=      5-min Rain = 0
KCL2 191434Z 34018KT 00/M05 A302 RMK A01 T00031045  RH  070%=      5-min Rain = 0
KCL2 191435Z 34020G25KT 00/M05 A3021 RMK A01 T00041045  RH  070%=      5-min Rain = 0
KCL2 191436Z 33020KT 00/M05 A3021 RMK A01 T00041045  RH  070%=      5-min Rain = 0
KCL2 191437Z 33017G22KT 00/M05 A3021 RMK A01 T00041045  RH  070%=      5-min Rain = 0
KCL2 191438Z 33020G26KT 00/M04 A3021 RMK A01 T00041044  RH  070%=      5-min Rain = 0
KCL2 191439Z 33018KT 00/M05 A3021 RMK A01 T00041045  RH  069%=      5-min Rain = 0
KCL2 191440Z 33021KT 01/M04 A3021 RMK A01 T00051044  RH  070%=      5-min Rain = 0
KCL2 191441Z 33023KT 00/M05 A3021 RMK A01 T00041045  RH  070%=      5-min Rain = 0
KCL2 191442Z 33018KT 01/M05 A3021 RMK A01 T00051045  RH  070%=      5-min Rain = 0
KCL2 191443Z 33018KT 00/M04 A3021 RMK A01 T00041044  RH  070%=      5-min Rain = 0
KCL2 191444Z 33022G27KT 01/M05 A3021 RMK A01 T00051045  RH  069%=      5-min Rain = 0
KCL2 191445Z 33021KT 01/M05 A3021 RMK A01 T00051045  RH  069%=      5-min Rain = 0
KCL2 191446Z 33021G26KT 01/M05 A3021 RMK A01 T00051045  RH  069%=      5-min Rain = 0
KCL2 191447Z 33019G24KT 01/M04 A3021 RMK A01 T00051044  RH  069%=      5-min Rain = 0
KCL2 191448Z 33018KT 01/M04 A3022 RMK A01 T00061043  RH  070%=      5-min Rain = 0
KCL2 191449Z 33021KT 01/M04 A3022 RMK A01 T00061044  RH  069%=      5-min Rain = 0
KCL2 191450Z 33019G24KT 01/M04 A3022 RMK A01 T00061044  RH  069%=      5-min Rain = 0
KCL2 191451Z 33020KT 01/M04 A3022 RMK A01 T00061044  RH  069%=      5-min Rain = 0
KCL2 191452Z 33016KT 01/M04 A3022 RMK A01 T00061044  RH  069%=      5-min Rain = 0
KCL2 191453Z 33019KT 01/M04 A3022 RMK A01 T00071043  RH  070%=      5-min Rain = 0
KCL2 191454Z 34023KT 01/M04 A3022 RMK A01 T00071043  RH  069%=      5-min Rain = 0
KCL2 191455Z 33018G23KT 01/M04 A3022 RMK A01 T00071043  RH  069%=      5-min Rain = 0
KCL2 191456Z 33016KT 01/M04 A3022 RMK A01 T00081042  RH  070%=      5-min Rain = 0
KCL2 191457Z 33016KT 01/M04 A3022 RMK A01 T00081041  RH  069%=      5-min Rain = 0
KCL2 191458Z 33016G21KT 01/M04 A3022 RMK A01 T00091041  RH  070%=      5-min Rain = 0
KCL2 191459Z 32018KT 01/M04 A3022 RMK A01 T00091040  RH  069%=      5-min Rain = 0
KCL2 191500Z 32017KT 01/M04 A3022 RMK A01 T00101041  RH  069%=      5-min Rain = 0
KCL2 191501Z 32018KT 01/M04 A3022 RMK A01 T00101040  RH  069%=      5-min Rain = 0
KCL2 191502Z 32020G26KT 01/M04 A3022 RMK A01 T00111040  RH  069%=      5-min Rain = 0
KCL2 191503Z 33019G24KT 01/M04 A3022 RMK A01 T00111040  RH  069%=      5-min Rain = 0
KCL2 191504Z 33019G24KT 01/M04 A3022 RMK A01 T00111040  RH  069%=      5-min Rain = 0
KCL2 191505Z 33018KT 01/M04 A3022 RMK A01 T00101040  RH  069%=      5-min Rain = 0
KCL2 191506Z 33020KT 01/M04 A3022 RMK A01 T00111040  RH  069%=      5-min Rain = 0
KCL2 191507Z 33022G27KT 01/M04 A3022 RMK A01 T00111041  RH  069%=      5-min Rain = 0
KCL2 191508Z 33017KT 01/M04 A3022 RMK A01 T00111040  RH  069%=      5-min Rain = 0
KCL2 191509Z 32014KT 01/M04 A3022 RMK A01 T00111039  RH  069%=      5-min Rain = 0
KCL2 191510Z 32016KT 01/M04 A3023 RMK A01 T00131037  RH  069%=      5-min Rain = 0
KCL2 191511Z 32018KT 01/M04 A3022 RMK A01 T00141037  RH  068%=      5-min Rain = 0
KCL2 191512Z 33018KT 02/M04 A3023 RMK A01 T00151039  RH  068%=      5-min Rain = 0
KCL2 191513Z 32017KT 02/M04 A3023 RMK A01 T00151040  RH  067%=      5-min Rain = 0
KCL2 191514Z 32017KT 02/M04 A3023 RMK A01 T00151039  RH  067%=      5-min Rain = 0
KCL2 191515Z 33017KT 02/M04 A3023 RMK A01 T00151039  RH  067%=      5-min Rain = 0
KCL2 191516Z 34020G25KT 02/M04 A3023 RMK A01 T00151039  RH  067%=      5-min Rain = 0
KCL2 191517Z 32019KT 02/M04 A3023 RMK A01 T00151041  RH  066%=      5-min Rain = 0
KCL2 191518Z 33015G20KT 02/M04 A3023 RMK A01 T00151041  RH  066%=      5-min Rain = 0
KCL2 191519Z 33017KT 02/M04 A3023 RMK A01 T00151041  RH  066%=      5-min Rain = 0
KCL2 191520Z 33017KT 02/M04 A3023 RMK A01 T00161040  RH  066%=      5-min Rain = 0
KCL2 191521Z 34021KT 02/M04 A3023 RMK A01 T00171041  RH  066%=      5-min Rain = 0
KCL2 191522Z 33020G25KT 02/M04 A3023 RMK A01 T00171043  RH  065%=      5-min Rain = 0
KCL2 191523Z 32020G26KT 02/M04 A3023 RMK A01 T00161043  RH  065%=      5-min Rain = 0
KCL2 191524Z 32022G27KT 02/M04 A3023 RMK A01 T00171042  RH  065%=      5-min Rain = 0
KCL2 191525Z 32020G26KT 02/M04 A3023 RMK A01 T00171042  RH  065%=      5-min Rain = 0
KCL2 191526Z 32022KT 02/M04 A3023 RMK A01 T00171043  RH  065%=      5-min Rain = 0
KCL2 191527Z 33024G29KT 02/M04 A3023 RMK A01 T00171043  RH  064%=      5-min Rain = 0
KCL2 191528Z 33023G30KT 02/M04 A3023 RMK A01 T00171044  RH  064%=      5-min Rain = 0
KCL2 191529Z 33021G27KT 02/M04 A3024 RMK A01 T00171044  RH  064%=      5-min Rain = 0
KCL2 191530Z 32020G26KT 02/M04 A3024 RMK A01 T00181044  RH  063%=      5-min Rain = 0
KCL2 191531Z 34019KT 02/M05 A3024 RMK A01 T00181045  RH  063%=      5-min Rain = 0
KCL2 191532Z 33021G27KT 02/M05 A3024 RMK A01 T00191045  RH  063%=      5-min Rain = 0
KCL2 191533Z 33018G24KT 02/M05 A3024 RMK A01 T00191046  RH  062%=      5-min Rain = 0
KCL2 191534Z 34022KT 02/M05 A3024 RMK A01 T00191046  RH  062%=      5-min Rain = 0
KCL2 191535Z 33019KT 02/M05 A3024 RMK A01 T00191046  RH  062%=      5-min Rain = 0
KCL2 191536Z 33020G31KT 02/M05 A3024 RMK A01 T00201045  RH  062%=      5-min Rain = 0
KCL2 191537Z 33025KT 02/M05 A3024 RMK A01 T00201046  RH  062%=      5-min Rain = 0
KCL2 191538Z 33023G29KT 02/M05 A3024 RMK A01 T00191047  RH  061%=      5-min Rain = 0
KCL2 191539Z 34025G31KT 02/M05 A3024 RMK A01 T00181047  RH  062%=      5-min Rain = 0
KCL2 191540Z 33024KT 02/M05 A3025 RMK A01 T00181048  RH  062%=      5-min Rain = 0
KCL2 191541Z 33023G30KT 02/M05 A3025 RMK A01 T00181047  RH  062%=      5-min Rain = 0
KCL2 191542Z 33023G28KT 02/M05 A3025 RMK A01 T00191046  RH  062%=      5-min Rain = 0
KCL2 191543Z 32021KT 02/M05 A3025 RMK A01 T00191047  RH  062%=      5-min Rain = 0
KCL2 191544Z 33019G24KT 02/M05 A3025 RMK A01 T00201045  RH  062%=      5-min Rain = 0
KCL2 191545Z 32021G30KT 02/M05 A3025 RMK A01 T00211045  RH  062%=      5-min Rain = 0
KCL2 191546Z 33021KT 02/M05 A3025 RMK A01 T00211045  RH  062%=      5-min Rain = 0
KCL2 191547Z 34020G26KT 02/M05 A3025 RMK A01 T00211045  RH  062%=      5-min Rain = 0
KCL2 191548Z 33023G30KT 02/M04 A3025 RMK A01 T00221044  RH  062%=      5-min Rain = 0
KCL2 191549Z 33024KT 02/M05 A3025 RMK A01 T00211047  RH  061%=      5-min Rain = 0
KCL2 191550Z 33022G29KT 02/M05 A3025 RMK A01 T00211047  RH  061%=      5-min Rain = 0
KCL2 191551Z 33021G26KT 02/M05 A3025 RMK A01 T00211047  RH  061%=      5-min Rain = 0
KCL2 191552Z 34021G26KT 02/M05 A3025 RMK A01 T00221046  RH  061%=      5-min Rain = 0
KCL2 191553Z 34021G26KT 02/M05 A3025 RMK A01 T00231045  RH  061%=      5-min Rain = 0
KCL2 191554Z 34020G26KT 02/M04 A3025 RMK A01 T00231044  RH  061%=      5-min Rain = 0
KCL2 191555Z 34019G26KT 02/M05 A3025 RMK A01 T00231045  RH  061%=      5-min Rain = 0
KCL2 191556Z 33025KT 02/M05 A3025 RMK A01 T00241046  RH  060%=      5-min Rain = 0
KCL2 191557Z 34021KT 02/M05 A3025 RMK A01 T00231047  RH  060%=      5-min Rain = 0
KCL2 191558Z 34023G30KT 02/M05 A3025 RMK A01 T00231045  RH  061%=      5-min Rain = 0
KCL2 191559Z 33022KT 02/M05 A3025 RMK A01 T00231047  RH  060%=      5-min Rain = 0
KCL2 191600Z 33025G30KT 02/M05 A3025 RMK A01 T00231047  RH  060%=      5-min Rain = 0
KCL2 191601Z 33022KT 02/M05 A3025 RMK A01 T00231047  RH  060%=      5-min Rain = 0
KCL2 191602Z 33025G31KT 02/M05 A3025 RMK A01 T00231047  RH  060%=      5-min Rain = 0
KCL2 191603Z 33025G30KT 02/M05 A3026 RMK A01 T00231048  RH  060%=      5-min Rain = 0
KCL2 191604Z 33023G28KT 02/M05 A3026 RMK A01 T00221049  RH  059%=      5-min Rain = 0
KCL2 191605Z 33021G26KT 02/M05 A3026 RMK A01 T00221048  RH  060%=      5-min Rain = 0
KCL2 191606Z 34020G26KT 02/M05 A3026 RMK A01 T00241047  RH  059%=      5-min Rain = 0
KCL2 191607Z 32024G31KT 03/M05 A3026 RMK A01 T00251049  RH  058%=      5-min Rain = 0
KCL2 191608Z 33024KT 02/M05 A3026 RMK A01 T00241050  RH  058%=      5-min Rain = 0
KCL2 191609Z 33027G32KT 02/M05 A3026 RMK A01 T00231051  RH  058%=      5-min Rain = 0
KCL2 191610Z 34025KT 02/M05 A3026 RMK A01 T00231051  RH  058%=      5-min Rain = 0
KCL2 191611Z 33023G32KT 02/M05 A3026 RMK A01 T00231050  RH  059%=      5-min Rain = 0
KCL2 191612Z 34023G28KT 02/M05 A3026 RMK A01 T00231050  RH  058%=      5-min Rain = 0
KCL2 191613Z 33025G31KT 02/M05 A3026 RMK A01 T00241050  RH  058%=      5-min Rain = 0
KCL2 191614Z 33026G32KT 02/M05 A3026 RMK A01 T00231052  RH  058%=      5-min Rain = 0
KCL2 191615Z 33025KT 02/M05 A3026 RMK A01 T00231052  RH  058%=      5-min Rain = 0
KCL2 191616Z 34024G31KT 02/M05 A3026 RMK A01 T00221052  RH  058%=      5-min Rain = 0
KCL2 191617Z 34028G34KT 02/M05 A3026 RMK A01 T00231052  RH  058%=      5-min Rain = 0
KCL2 191618Z 34026G31KT 02/M05 A3026 RMK A01 T00231053  RH  057%=      5-min Rain = 0
KCL2 191619Z 34023G28KT 02/M05 A3026 RMK A01 T00221053  RH  057%=      5-min Rain = 0
KCL2 191620Z 34025G30KT 02/M05 A3026 RMK A01 T00231051  RH  058%=      5-min Rain = 0
KCL2 191621Z 34023KT 02/M05 A3026 RMK A01 T00241051  RH  058%=      5-min Rain = 0
KCL2 191622Z 34020G25KT 03/M05 A3026 RMK A01 T00251051  RH  057%=      5-min Rain = 0
KCL2 191623Z 33021G26KT 03/M05 A3026 RMK A01 T00271049  RH  057%=      5-min Rain = 0
KCL2 191624Z 33024G31KT 03/M05 A3026 RMK A01 T00271050  RH  057%=      5-min Rain = 0
KCL2 191625Z 33022G28KT 03/M05 A3026 RMK A01 T00271049  RH  057%=      5-min Rain = 0
KCL2 191626Z 32024KT 03/M05 A3026 RMK A01 T00281048  RH  057%=      5-min Rain = 0
KCL2 191627Z 33026KT 03/M05 A3026 RMK A01 T00271050  RH  057%=      5-min Rain = 0
KCL2 191628Z 33027KT 03/M05 A3026 RMK A01 T00261052  RH  057%=      5-min Rain = 0
KCL2 191629Z 33021G26KT 03/M05 A3026 RMK A01 T00261052  RH  056%=      5-min Rain = 0
KCL2 191630Z 33020G25KT 03/M05 A3026 RMK A01 T00271050  RH  057%=      5-min Rain = 0
KCL2 191631Z 33025G31KT 03/M05 A3026 RMK A01 T00291050  RH  056%=      5-min Rain = 0
KCL2 191632Z 33023KT 03/M05 A3027 RMK A01 T00291052  RH  055%=      5-min Rain = 0
KCL2 191633Z 33024KT 03/M05 A3027 RMK A01 T00281052  RH  056%=      5-min Rain = 0
KCL2 191634Z 33022G27KT 03/M05 A3027 RMK A01 T00281051  RH  056%=      5-min Rain = 0
KCL2 191635Z 34022KT 03/M05 A3027 RMK A01 T00271050  RH  057%=      5-min Rain = 0
KCL2 191636Z 34024G30KT 03/M05 A3027 RMK A01 T00281050  RH  057%=      5-min Rain = 0
KCL2 191637Z 34022KT 03/M05 A3027 RMK A01 T00271051  RH  056%=      5-min Rain = 0
KCL2 191638Z 33021KT 03/M05 A3027 RMK A01 T00281050  RH  057%=      5-min Rain = 0
KCL2 191639Z 32023G35KT 03/M05 A3027 RMK A01 T00291049  RH  057%=      5-min Rain = 0
KCL2 191640Z 33023G28KT 03/M05 A3027 RMK A01 T00301049  RH  056%=      5-min Rain = 0
KCL2 191641Z 32024G31KT 03/M05 A3027 RMK A01 T00301050  RH  056%=      5-min Rain = 0
KCL2 191642Z 33027G33KT 03/M05 A3027 RMK A01 T00301051  RH  055%=      5-min Rain = 0
KCL2 191643Z 32025G33KT 03/M05 A3027 RMK A01 T00281053  RH  055%=      5-min Rain = 0
KCL2 191644Z 32025G30KT 03/M05 A3027 RMK A01 T00281052  RH  056%=      5-min Rain = 0
KCL2 191645Z 32024KT 03/M05 A3027 RMK A01 T00291051  RH  055%=      5-min Rain = 0
KCL2 191646Z 32027G33KT 03/M05 A3027 RMK A01 T00291051  RH  055%=      5-min Rain = 0
KCL2 191647Z 33025KT 03/M05 A3027 RMK A01 T00281053  RH  055%=      5-min Rain = 0
KCL2 191648Z 33023G29KT 03/M05 A3027 RMK A01 T00281052  RH  056%=      5-min Rain = 0
KCL2 191649Z 33024G32KT 03/M05 A3027 RMK A01 T00291051  RH  056%=      5-min Rain = 0
KCL2 191650Z 32025G30KT 03/M05 A3027 RMK A01 T00291051  RH  055%=      5-min Rain = 0
KCL2 191651Z 32024KT 03/M05 A3027 RMK A01 T00301051  RH  055%=      5-min Rain = 0
KCL2 191652Z 32022G28KT 03/M05 A3027 RMK A01 T00311051  RH  055%=      5-min Rain = 0
KCL2 191653Z 32024KT 03/M05 A3028 RMK A01 T00321050  RH  055%=      5-min Rain = 0
KCL2 191654Z 33022G29KT 03/M05 A3028 RMK A01 T00331050  RH  055%=      5-min Rain = 0
KCL2 191655Z 33027G32KT 03/M05 A3027 RMK A01 T00331051  RH  054%=      5-min Rain = 0
KCL2 191656Z 33026G31KT 03/M05 A3027 RMK A01 T00321052  RH  054%=      5-min Rain = 0
KCL2 191657Z 33024KT 03/M05 A3028 RMK A01 T00321052  RH  054%=      5-min Rain = 0
KCL2 191658Z 33018KT 03/M05 A3028 RMK A01 T00321052  RH  054%=      5-min Rain = 0
KCL2 191659Z 33018G28KT 04/M05 A3028 RMK A01 T00371045  RH  055%=      5-min Rain = 0
KCL2 191700Z 33020G28KT 04/M05 A3028 RMK A01 T00391047  RH  053%=      5-min Rain = 0
KCL2 191701Z 34020G27KT 04/M05 A3028 RMK A01 T00381047  RH  054%=      5-min Rain = 0
KCL2 191702Z 33021KT 04/M05 A3028 RMK A01 T00391047  RH  054%=      5-min Rain = 0
KCL2 191703Z 33021G26KT 04/M05 A3028 RMK A01 T00391046  RH  054%=      5-min Rain = 0
KCL2 191704Z 33026G34KT 04/M05 A3028 RMK A01 T00391049  RH  053%=      5-min Rain = 0
KCL2 191705Z 33026G33KT 04/M05 A3028 RMK A01 T00361051  RH  053%=      5-min Rain = 0
KCL2 191706Z 33024G29KT 04/M05 A3028 RMK A01 T00351052  RH  053%=      5-min Rain = 0
KCL2 191707Z 33028G33KT 03/M05 A3028 RMK A01 T00341051  RH  054%=      5-min Rain = 0
KCL2 191708Z 33022KT 03/M05 A3028 RMK A01 T00341052  RH  053%=      5-min Rain = 0
KCL2 191709Z 33023G31KT 04/M05 A3028 RMK A01 T00371048  RH  054%=      5-min Rain = 0
KCL2 191710Z 33024G32KT 04/M05 A3028 RMK A01 T00371051  RH  053%=      5-min Rain = 0
KCL2 191711Z 34022G28KT 04/M05 A3028 RMK A01 T00361050  RH  053%=      5-min Rain = 0
KCL2 191712Z 34026G34KT 04/M05 A3028 RMK A01 T00361050  RH  053%=      5-min Rain = 0
KCL2 191713Z 34026KT 04/M05 A3028 RMK A01 T00361051  RH  053%=      5-min Rain = 0
KCL2 191714Z 34025G30KT 04/M05 A3028 RMK A01 T00351050  RH  053%=      5-min Rain = 0
KCL2 191715Z 33020G26KT 04/M05 A3028 RMK A01 T00351051  RH  053%=      5-min Rain = 0
KCL2 191716Z 34021KT 04/M05 A3028 RMK A01 T00391046  RH  054%=      5-min Rain = 0
KCL2 191717Z 33023KT 04/M05 A3028 RMK A01 T00411047  RH  053%=      5-min Rain = 0
KCL2 191718Z 33025G31KT 04/M05 A3028 RMK A01 T00411048  RH  052%=      5-min Rain = 0
KCL2 191719Z 32027G34KT 04/M05 A3027 RMK A01 T00401050  RH  052%=      5-min Rain = 0
KCL2 191720Z 33025G31KT 04/M05 A3027 RMK A01 T00391051  RH  052%=      5-min Rain = 0
KCL2 191721Z 34024G31KT 04/M05 A3028 RMK A01 T00391051  RH  052%=      5-min Rain = 0
KCL2 191722Z 33023G31KT 04/M05 A3028 RMK A01 T00391051  RH  052%=      5-min Rain = 0
KCL2 191723Z 34027G35KT 04/M05 A3028 RMK A01 T00391053  RH  051%=      5-min Rain = 0
KCL2 191724Z 34022G28KT 04/M05 A3028 RMK A01 T00381053  RH  051%=      5-min Rain = 0
KCL2 191725Z 32026G31KT 04/M05 A3027 RMK A01 T00401051  RH  052%=      5-min Rain = 0
KCL2 191726Z 33025G30KT 04/M05 A3027 RMK A01 T00391054  RH  051%=      5-min Rain = 0
KCL2 191727Z 33021G26KT 04/M05 A3028 RMK A01 T00391052  RH  051%=      5-min Rain = 0
KCL2 191728Z 33021KT 04/M05 A3027 RMK A01 T00421050  RH  051%=      5-min Rain = 0
KCL2 191729Z 34021G26KT 04/M05 A3028 RMK A01 T00431049  RH  051%=      5-min Rain = 0
KCL2 191730Z 33020G25KT 04/M05 A3027 RMK A01 T00441048  RH  051%=      5-min Rain = 0
KCL2 191731Z 33020G25KT 05/M05 A3027 RMK A01 T00451048  RH  051%=      5-min Rain = 0
KCL2 191732Z 33020G25KT 05/M05 A3027 RMK A01 T00451048  RH  051%=      5-min Rain = 0
KCL2 191733Z 32025G32KT 05/M05 A3027 RMK A01 T00461048  RH  050%=      5-min Rain = 0
KCL2 191734Z 33023G31KT 05/M05 A3027 RMK A01 T00451050  RH  050%=      5-min Rain = 0
KCL2 191735Z 33027KT 05/M05 A3027 RMK A01 T00451051  RH  050%=      5-min Rain = 0
KCL2 191736Z 33025KT 04/M05 A3027 RMK A01 T00421053  RH  050%=      5-min Rain = 0
KCL2 191737Z 33027KT 04/M05 A3027 RMK A01 T00411053  RH  050%=      5-min Rain = 0
KCL2 191738Z 34022KT 04/M05 A3027 RMK A01 T00411053  RH  050%=      5-min Rain = 0
KCL2 191739Z 33023KT 04/M05 A3027 RMK A01 T00431051  RH  051%=      5-min Rain = 0
KCL2 191740Z 33025G31KT 04/M05 A3027 RMK A01 T00441052  RH  050%=      5-min Rain = 0
KCL2 191741Z 33024G33KT 04/M05 A3027 RMK A01 T00441054  RH  049%=      5-min Rain = 0
KCL2 191742Z 33021G27KT 04/M06 A3027 RMK A01 T00421055  RH  049%=      5-min Rain = 0
KCL2 191743Z 34023G32KT 04/M05 A3027 RMK A01 T00431051  RH  050%=      5-min Rain = 0
KCL2 191744Z 34024KT 04/M05 A3027 RMK A01 T00441053  RH  049%=      5-min Rain = 0
KCL2 191745Z 33020G26KT 04/M05 A3027 RMK A01 T00441052  RH  050%=      5-min Rain = 0
KCL2 191746Z 34024KT 05/M05 A3027 RMK A01 T00461051  RH  050%=      5-min Rain = 0
KCL2 191747Z 34025G31KT 05/M05 A3027 RMK A01 T00461053  RH  049%=      5-min Rain = 0
KCL2 191748Z 34024KT 04/M05 A3027 RMK A01 T00441054  RH  049%=      5-min Rain = 0
KCL2 191749Z 34026G31KT 04/M05 A3027 RMK A01 T00441053  RH  049%=      5-min Rain = 0
KCL2 191750Z 34026KT 04/M05 A3027 RMK A01 T00441053  RH  049%=      5-min Rain = 0
KCL2 191751Z 34026G32KT 04/M05 A3027 RMK A01 T00441052  RH  050%=      5-min Rain = 0
KCL2 191752Z 34027G32KT 04/M05 A3027 RMK A01 T00441052  RH  049%=      5-min Rain = 0
KCL2 191753Z 35026KT 04/M05 A3027 RMK A01 T00431054  RH  049%=      5-min Rain = 0
KCL2 191754Z 34025G30KT 04/M05 A3027 RMK A01 T00431054  RH  049%=      5-min Rain = 0
KCL2 191755Z 34023G29KT 04/M05 A3027 RMK A01 T00431053  RH  050%=      5-min Rain = 0
KCL2 191756Z 33024G31KT 05/M05 A3027 RMK A01 T00461050  RH  050%=      5-min Rain = 0
KCL2 191757Z 34021G26KT 05/M05 A3027 RMK A01 T00461051  RH  049%=      5-min Rain = 0
KCL2 191758Z 34020G26KT 05/M05 A3027 RMK A01 T00491048  RH  049%=      5-min Rain = 0
KCL2 191759Z 34023G30KT 05/M05 A3027 RMK A01 T00511047  RH  049%=      5-min Rain = 0
KCL2 191800Z 34023KT 05/M05 A3027 RMK A01 T00501051  RH  048%=      5-min Rain = 0
KCL2 191801Z 35024G29KT 05/M05 A3027 RMK A01 T00471052  RH  049%=      5-min Rain = 0
KCL2 191802Z 35024G30KT 05/M05 A3027 RMK A01 T00471050  RH  049%=      5-min Rain = 0
KCL2 191803Z 35021G28KT 05/M05 A3027 RMK A01 T00481047  RH  050%=      5-min Rain = 0
KCL2 191804Z 34026KT 05/M05 A3027 RMK A01 T00491049  RH  049%=      5-min Rain = 0
KCL2 191805Z 34024G29KT 05/M05 A3027 RMK A01 T00471051  RH  049%=      5-min Rain = 0
KCL2 191806Z 34023G29KT 05/M05 A3027 RMK A01 T00471048  RH  050%=      5-min Rain = 0
KCL2 191807Z 34020G29KT 05/M05 A3027 RMK A01 T00491047  RH  050%=      5-min Rain = 0
KCL2 191808Z 34024KT 05/M05 A3027 RMK A01 T00511045  RH  050%=      5-min Rain = 0
KCL2 191809Z 33020G27KT 05/M05 A3027 RMK A01 T00511046  RH  049%=      5-min Rain = 0
KCL2 191810Z 32020G25KT 05/M04 A3027 RMK A01 T00531042  RH  050%=      5-min Rain = 0
KCL2 191811Z 32026G31KT 05/M05 A3027 RMK A01 T00541046  RH  049%=      5-min Rain = 0
KCL2 191812Z 33024G29KT 05/M05 A3027 RMK A01 T00511049  RH  048%=      5-min Rain = 0
KCL2 191813Z 33022KT 05/M05 A3027 RMK A01 T00501048  RH  049%=      5-min Rain = 0
KCL2 191814Z 32022G27KT 05/M05 A3027 RMK A01 T00491048  RH  049%=      5-min Rain = 0
KCL2 191815Z 33019G28KT 05/M04 A3027 RMK A01 T00511044  RH  050%=      5-min Rain = 0
KCL2 191816Z 34022G29KT 05/M04 A3027 RMK A01 T00541044  RH  049%=      5-min Rain = 0
KCL2 191817Z 33021G29KT 05/M05 A3027 RMK A01 T00521048  RH  048%=      5-min Rain = 0
KCL2 191818Z 33018KT 05/M05 A3027 RMK A01 T00541045  RH  049%=      5-min Rain = 0
KCL2 191819Z 33022G29KT 06/M04 A3026 RMK A01 T00591043  RH  048%=      5-min Rain = 0
KCL2 191820Z 34023KT 06/M05 A3026 RMK A01 T00581050  RH  046%=      5-min Rain = 0
KCL2 191821Z 34022G27KT 06/M05 A3026 RMK A01 T00551052  RH  046%=      5-min Rain = 0
KCL2 191822Z 35020KT 05/M05 A3027 RMK A01 T00531050  RH  047%=      5-min Rain = 0
KCL2 191823Z 35023G29KT 05/M05 A3027 RMK A01 T00541050  RH  047%=      5-min Rain = 0
KCL2 191824Z 34023G29KT 05/M05 A3026 RMK A01 T00521053  RH  047%=      5-min Rain = 0
KCL2 191825Z 33019G26KT 05/M05 A3026 RMK A01 T00511051  RH  048%=      5-min Rain = 0
KCL2 191826Z 34023G30KT 05/M05 A3026 RMK A01 T00531049  RH  048%=      5-min Rain = 0
KCL2 191827Z 34025KT 05/M05 A3026 RMK A01 T00541052  RH  046%=      5-min Rain = 0
KCL2 191828Z 33023KT 05/M05 A3026 RMK A01 T00521053  RH  047%=      5-min Rain = 0
KCL2 191829Z 34021G27KT 05/M05 A3026 RMK A01 T00521051  RH  047%=      5-min Rain = 0
KCL2 191830Z 35024G30KT 05/M05 A3026 RMK A01 T00521050  RH  048%=      5-min Rain = 0
KCL2 191831Z 34027G32KT 05/M05 A3026 RMK A01 T00511052  RH  047%=      5-min Rain = 0
KCL2 191832Z 34022KT 05/M05 A3026 RMK A01 T00491052  RH  048%=      5-min Rain = 0
KCL2 191833Z 34022KT 05/M05 A3026 RMK A01 T00511049  RH  048%=      5-min Rain = 0
KCL2 191834Z 34022G29KT 05/M05 A3026 RMK A01 T00521049  RH  048%=      5-min Rain = 0
KCL2 191835Z 34025KT 05/M05 A3026 RMK A01 T00521049  RH  048%=      5-min Rain = 0
KCL2 191836Z 34022G27KT 05/M05 A3026 RMK A01 T00521049  RH  048%=      5-min Rain = 0
KCL2 191837Z 33019KT 05/M05 A3026 RMK A01 T00521049  RH  048%=      5-min Rain = 0
KCL2 191838Z 33023KT 05/M05 A3026 RMK A01 T00521048  RH  048%=      5-min Rain = 0
KCL2 191839Z 34024KT 05/M05 A3026 RMK A01 T00531048  RH  048%=      5-min Rain = 0
KCL2 191840Z 34022G28KT 05/M05 A3026 RMK A01 T00511049  RH  048%=      5-min Rain = 0
KCL2 191841Z 35017KT 05/M05 A3026 RMK A01 T00521045  RH  049%=      5-min Rain = 0
KCL2 191842Z 34018KT 06/M04 A3026 RMK A01 T00561041  RH  049%=      5-min Rain = 0
KCL2 191843Z 34022KT 06/M04 A3026 RMK A01 T00571043  RH  048%=      5-min Rain = 0
KCL2 191844Z 34020KT 06/M05 A3026 RMK A01 T00561045  RH  048%=      5-min Rain = 0
KCL2 191845Z 34023KT 06/M05 A3026 RMK A01 T00551046  RH  048%=      5-min Rain = 0
KCL2 191846Z 33019G24KT 05/M05 A3026 RMK A01 T00541045  RH  049%=      5-min Rain = 0
KCL2 191847Z 33021G26KT 06/M04 A3026 RMK A01 T00561043  RH  049%=      5-min Rain = 0
KCL2 191848Z 34021KT 06/M04 A3026 RMK A01 T00571043  RH  049%=      5-min Rain = 0
KCL2 191849Z 34022G28KT 06/M04 A3026 RMK A01 T00571043  RH  049%=      5-min Rain = 0
KCL2 191850Z 34019G25KT 06/M04 A3026 RMK A01 T00551043  RH  049%=      5-min Rain = 0
KCL2 191851Z 34022KT 06/M04 A3025 RMK A01 T00561043  RH  049%=      5-min Rain = 0
KCL2 191852Z 34020G26KT 06/M04 A3025 RMK A01 T00551043  RH  049%=      5-min Rain = 0
KCL2 191853Z 34020KT 06/M04 A3025 RMK A01 T00561042  RH  049%=      5-min Rain = 0
KCL2 191854Z 34021KT 06/M04 A3025 RMK A01 T00561043  RH  049%=      5-min Rain = 0
KCL2 191855Z 34022G27KT 06/M04 A3025 RMK A01 T00551043  RH  049%=      5-min Rain = 0
KCL2 191856Z 35022KT 06/M04 A3025 RMK A01 T00551044  RH  049%=      5-min Rain = 0
KCL2 191857Z 34019G24KT 05/M04 A3025 RMK A01 T00541044  RH  049%=      5-min Rain = 0
KCL2 191858Z 35019KT 05/M04 A3025 RMK A01 T00531043  RH  050%=      5-min Rain = 0
KCL2 191859Z 33021G27KT 05/M04 A3025 RMK A01 T00541042  RH  050%=      5-min Rain = 0
KCL2 191900Z 33022KT 06/M04 A3024 RMK A01 T00561042  RH  049%=      5-min Rain = 0
KCL2 191901Z 33018G23KT 06/M04 A3025 RMK A01 T00581044  RH  048%=      5-min Rain = 0
KCL2 191902Z 33023G28KT 06/M04 A3025 RMK A01 T00601043  RH  048%=      5-min Rain = 0
KCL2 191903Z 32023G28KT 06/M05 A3025 RMK A01 T00611047  RH  046%=      5-min Rain = 0
KCL2 191904Z 32027G33KT 06/M05 A3024 RMK A01 T00601051  RH  045%=      5-min Rain = 0
KCL2 191905Z 33026G33KT 06/M05 A3025 RMK A01 T00591052  RH  045%=      5-min Rain = 0
KCL2 191906Z 33025G30KT 06/M05 A3025 RMK A01 T00581053  RH  045%=      5-min Rain = 0
KCL2 191907Z 34026G31KT 06/M05 A3025 RMK A01 T00571054  RH  045%=      5-min Rain = 0
KCL2 191908Z 34025G30KT 06/M06 A3024 RMK A01 T00551056  RH  045%=      5-min Rain = 0
KCL2 191909Z 34025G30KT 05/M05 A3025 RMK A01 T00541054  RH  045%=      5-min Rain = 0
KCL2 191910Z 34023G28KT 05/M06 A3025 RMK A01 T00521056  RH  046%=      5-min Rain = 0
KCL2 191911Z 34019G24KT 05/M05 A3025 RMK A01 T00521053  RH  047%=      5-min Rain = 0
KCL2 191912Z 33025G34KT 06/M05 A3024 RMK A01 T00561050  RH  046%=      5-min Rain = 0
KCL2 191913Z 34025KT 06/M05 A3024 RMK A01 T00561054  RH  045%=      5-min Rain = 0
KCL2 191914Z 34027KT 06/M06 A3024 RMK A01 T00551056  RH  045%=      5-min Rain = 0
KCL2 191915Z 34025G31KT 05/M06 A3024 RMK A01 T00531057  RH  045%=      5-min Rain = 0
KCL2 191916Z 33024G30KT 05/M06 A3024 RMK A01 T00531057  RH  045%=      5-min Rain = 0
KCL2 191917Z 33024G31KT 05/M06 A3024 RMK A01 T00541055  RH  045%=      5-min Rain = 0
KCL2 191918Z 33022G27KT 06/M05 A3024 RMK A01 T00561053  RH  045%=      5-min Rain = 0
KCL2 191919Z 33022G28KT 06/M05 A3024 RMK A01 T00571052  RH  045%=      5-min Rain = 0
KCL2 191920Z 33022KT 06/M05 A3024 RMK A01 T00571054  RH  045%=      5-min Rain = 0
KCL2 191921Z 33021G26KT 06/M05 A3024 RMK A01 T00561054  RH  045%=      5-min Rain = 0
KCL2 191922Z 34022G28KT 06/M05 A3024 RMK A01 T00561053  RH  045%=      5-min Rain = 0
KCL2 191923Z 34022KT 06/M05 A3024 RMK A01 T00551054  RH  045%=      5-min Rain = 0
KCL2 191924Z 34023KT 06/M05 A3024 RMK A01 T00551054  RH  046%=      5-min Rain = 0
KCL2 191925Z 31023KT 06/M05 A3024 RMK A01 T00561052  RH  046%=      5-min Rain = 0
KCL2 191926Z 33022G27KT 06/M05 A3024 RMK A01 T00591051  RH  045%=      5-min Rain = 0
KCL2 191927Z 34022G27KT 06/M05 A3024 RMK A01 T00591053  RH  045%=      5-min Rain = 0
KCL2 191928Z 34018KT 06/M05 A3024 RMK A01 T00571053  RH  045%=      5-min Rain = 0
KCL2 191929Z 34018G24KT 06/M05 A3024 RMK A01 T00581049  RH  046%=      5-min Rain = 0
KCL2 191930Z 34018G24KT 06/M05 A3024 RMK A01 T00591050  RH  045%=      5-min Rain = 0
KCL2 191931Z 34018G25KT 06/M05 A3024 RMK A01 T00571051  RH  046%=      5-min Rain = 0
KCL2 191932Z 33019KT 06/M05 A3024 RMK A01 T00571049  RH  046%=      5-min Rain = 0
KCL2 191933Z 34019KT 06/M05 A3024 RMK A01 T00601048  RH  046%=      5-min Rain = 0
KCL2 191934Z 35018G26KT 06/M05 A3024 RMK A01 T00601048  RH  046%=      5-min Rain = 0
KCL2 191935Z 35024KT 06/M05 A3024 RMK A01 T00591050  RH  045%=      5-min Rain = 0
KCL2 191936Z 33021G26KT 06/M05 A3024 RMK A01 T00571050  RH  046%=      5-min Rain = 0
KCL2 191937Z 32025G32KT 06/M05 A3024 RMK A01 T00601049  RH  045%=      5-min Rain = 0
KCL2 191938Z 33020G25KT 06/M05 A3024 RMK A01 T00601052  RH  044%=      5-min Rain = 0
KCL2 191939Z 33021KT 06/M05 A3024 RMK A01 T00601050  RH  045%=      5-min Rain = 0
KCL2 191940Z 32020KT 06/M05 A3024 RMK A01 T00631048  RH  045%=      5-min Rain = 0
KCL2 191941Z 32019KT 06/M05 A3024 RMK A01 T00631050  RH  044%=      5-min Rain = 0
KCL2 191942Z 33018KT 06/M05 A3024 RMK A01 T00621049  RH  045%=      5-min Rain = 0
KCL2 191943Z 33018KT 06/M05 A3024 RMK A01 T00631049  RH  045%=      5-min Rain = 0
KCL2 191944Z 33020G28KT 06/M05 A3024 RMK A01 T00641047  RH  045%=      5-min Rain = 0
KCL2 191945Z 33020G25KT 07/M05 A3024 RMK A01 T00651047  RH  044%=      5-min Rain = 0
KCL2 191946Z 33019KT 07/M05 A3024 RMK A01 T00651048  RH  044%=      5-min Rain = 0
KCL2 191947Z 33019KT 07/M05 A3024 RMK A01 T00661046  RH  045%=      5-min Rain = 0
KCL2 191948Z 33019G24KT 07/M05 A3024 RMK A01 T00661047  RH  044%=      5-min Rain = 0
KCL2 191949Z 34018KT 07/M05 A3024 RMK A01 T00661048  RH  044%=      5-min Rain = 0
KCL2 191950Z 33020KT 07/M05 A3024 RMK A01 T00661046  RH  045%=      5-min Rain = 0
KCL2 191951Z 33021G26KT 07/M05 A3024 RMK A01 T00661048  RH  044%=      5-min Rain = 0
KCL2 191952Z 33025KT 07/M05 A3023 RMK A01 T00661050  RH  043%=      5-min Rain = 0
KCL2 191953Z 33024KT 06/M05 A3023 RMK A01 T00641052  RH  043%=      5-min Rain = 0
KCL2 191954Z 34019KT 06/M05 A3024 RMK A01 T00631050  RH  044%=      5-min Rain = 0
KCL2 191955Z 34019KT 06/M05 A3024 RMK A01 T00641047  RH  045%=      5-min Rain = 0
KCL2 191956Z 34020G27KT 07/M05 A3024 RMK A01 T00651046  RH  045%=      5-min Rain = 0
KCL2 191957Z 33021G26KT 07/M05 A3024 RMK A01 T00661047  RH  044%=      5-min Rain = 0
KCL2 191958Z 34019KT 07/M05 A3024 RMK A01 T00651048  RH  044%=      5-min Rain = 0
KCL2 191959Z 33018G25KT 07/M05 A3024 RMK A01 T00651047  RH  045%=      5-min Rain = 0
KCL2 192000Z 33020KT 07/M04 A3023 RMK A01 T00671044  RH  045%=      5-min Rain = 0
KCL2 192001Z 33022KT 07/M05 A3023 RMK A01 T00681046  RH  044%=      5-min Rain = 0
KCL2 192002Z 32021G26KT 07/M05 A3023 RMK A01 T00671048  RH  044%=      5-min Rain = 0
KCL2 192003Z 32023KT 07/M05 A3023 RMK A01 T00681045  RH  044%=      5-min Rain = 0
KCL2 192004Z 32022G28KT 07/M05 A3023 RMK A01 T00691046  RH  044%=      5-min Rain = 0
KCL2 192005Z 33022G27KT 07/M05 A3023 RMK A01 T00691046  RH  044%=      5-min Rain = 0
KCL2 192006Z 32023KT 07/M05 A3023 RMK A01 T00691045  RH  044%=      5-min Rain = 0
KCL2 192007Z 33020KT 07/M05 A3023 RMK A01 T00681045  RH  044%=      5-min Rain = 0
KCL2 192008Z 33018G23KT 07/M04 A3023 RMK A01 T00681043  RH  045%=      5-min Rain = 0
KCL2 192009Z 33019G25KT 07/M04 A3023 RMK A01 T00701042  RH  045%=      5-min Rain = 0
KCL2 192010Z 32022G27KT 07/M04 A3023 RMK A01 T00701043  RH  044%=      5-min Rain = 0
KCL2 192011Z 33019KT 07/M04 A3023 RMK A01 T00711043  RH  044%=      5-min Rain = 0
KCL2 192012Z 33020KT 07/M04 A3023 RMK A01 T00731042  RH  044%=      5-min Rain = 0
KCL2 192013Z 32023G28KT 07/M04 A3023 RMK A01 T00731044  RH  043%=      5-min Rain = 0
KCL2 192014Z 33025KT 07/M05 A3023 RMK A01 T00711046  RH  043%=      5-min Rain = 0
KCL2 192015Z 33025KT 07/M05 A3023 RMK A01 T00691045  RH  044%=      5-min Rain = 0
KCL2 192016Z 34021KT 07/M05 A3023 RMK A01 T00681046  RH  044%=      5-min Rain = 0
KCL2 192017Z 33021G29KT 07/M05 A3023 RMK A01 T00671046  RH  044%=      5-min Rain = 0
KCL2 192018Z 33025G34KT 07/M05 A3023 RMK A01 T00681046  RH  044%=      5-min Rain = 0
KCL2 192019Z 33026G33KT 07/M05 A3023 RMK A01 T00691047  RH  043%=      5-min Rain = 0
KCL2 192020Z 33023G28KT 07/M05 A3023 RMK A01 T00671049  RH  043%=      5-min Rain = 0
KCL2 192021Z 33019KT 07/M05 A3023 RMK A01 T00651048  RH  044%=      5-min Rain = 0
KCL2 192022Z 32024G34KT 07/M04 A3023 RMK A01 T00691044  RH  045%=      5-min Rain = 0
KCL2 192023Z 33024G31KT 07/M05 A3023 RMK A01 T00691048  RH  043%=      5-min Rain = 0
KCL2 192024Z 33023G30KT 07/M05 A3023 RMK A01 T00681049  RH  043%=      5-min Rain = 0
KCL2 192025Z 33020G25KT 07/M05 A3023 RMK A01 T00681049  RH  043%=      5-min Rain = 0
KCL2 192026Z 32018KT 07/M05 A3023 RMK A01 T00681049  RH  043%=      5-min Rain = 0
KCL2 192027Z 33022G27KT 07/M05 A3023 RMK A01 T00701046  RH  043%=      5-min Rain = 0
KCL2 192028Z 32023G29KT 07/M05 A3023 RMK A01 T00711047  RH  043%=      5-min Rain = 0
KCL2 192029Z 33021KT 07/M05 A3023 RMK A01 T00711046  RH  043%=      5-min Rain = 0
KCL2 192030Z 34021G27KT 07/M04 A3023 RMK A01 T00721044  RH  043%=      5-min Rain = 0
KCL2 192031Z 33022KT 07/M05 A3023 RMK A01 T00721045  RH  043%=      5-min Rain = 0
KCL2 192032Z 34019KT 07/M05 A3023 RMK A01 T00711046  RH  043%=      5-min Rain = 0
KCL2 192033Z 33022G28KT 07/M05 A3023 RMK A01 T00721045  RH  043%=      5-min Rain = 0
KCL2 192034Z 33022G27KT 07/M05 A3023 RMK A01 T00731046  RH  043%=      5-min Rain = 0
KCL2 192035Z 34023G30KT 07/M05 A3023 RMK A01 T00731046  RH  043%=      5-min Rain = 0
KCL2 192036Z 34026KT 07/M05 A3023 RMK A01 T00711047  RH  043%=      5-min Rain = 0
KCL2 192037Z 33021G28KT 07/M05 A3023 RMK A01 T00691049  RH  043%=      5-min Rain = 0
KCL2 192038Z 33024G29KT 07/M05 A3023 RMK A01 T00701046  RH  043%=      5-min Rain = 0
KCL2 192039Z 33022G27KT 07/M05 A3023 RMK A01 T00701048  RH  043%=      5-min Rain = 0
KCL2 192040Z 33024KT 07/M05 A3023 RMK A01 T00691048  RH  043%=      5-min Rain = 0
KCL2 192041Z 32023G28KT 07/M05 A3023 RMK A01 T00701048  RH  043%=      5-min Rain = 0
KCL2 192042Z 33018G23KT 07/M05 A3023 RMK A01 T00731045  RH  043%=      5-min Rain = 0
KCL2 192043Z 34021KT 08/M04 A3023 RMK A01 T00761043  RH  043%=      5-min Rain = 0
KCL2 192044Z 34023G30KT 08/M05 A3023 RMK A01 T00761045  RH  042%=      5-min Rain = 0
KCL2 192045Z 34021G30KT 07/M05 A3023 RMK A01 T00731048  RH  042%=      5-min Rain = 0
KCL2 192046Z 34023G28KT 07/M05 A3023 RMK A01 T00721047  RH  042%=      5-min Rain = 0
KCL2 192047Z 34025G31KT 07/M05 A3023 RMK A01 T00721047  RH  042%=      5-min Rain = 0
KCL2 192048Z 34025G32KT 07/M05 A3023 RMK A01 T00711048  RH  042%=      5-min Rain = 0
KCL2 192049Z 33019G24KT 07/M05 A3023 RMK A01 T00691049  RH  043%=      5-min Rain = 0
KCL2 192050Z 33020G25KT 07/M05 A3023 RMK A01 T00711046  RH  043%=      5-min Rain = 0
KCL2 192051Z 33022G27KT 07/M05 A3023 RMK A01 T00721046  RH  043%=      5-min Rain = 0
KCL2 192052Z 33019KT 07/M05 A3022 RMK A01 T00731045  RH  043%=      5-min Rain = 0
KCL2 192053Z 34021KT 08/M04 A3023 RMK A01 T00751043  RH  043%=      5-min Rain = 0
KCL2 192054Z 34024G29KT 08/M05 A3023 RMK A01 T00751045  RH  042%=      5-min Rain = 0
KCL2 192055Z 35025G30KT 07/M05 A3023 RMK A01 T00731047  RH  042%=      5-min Rain = 0
KCL2 192056Z 34025KT 07/M05 A3023 RMK A01 T00711047  RH  043%=      5-min Rain = 0
KCL2 192057Z 35025G31KT 07/M05 A3023 RMK A01 T00701047  RH  043%=      5-min Rain = 0
KCL2 192058Z 34023KT 07/M05 A3023 RMK A01 T00691047  RH  043%=      5-min Rain = 0
KCL2 192059Z 34020G25KT 07/M05 A3023 RMK A01 T00701045  RH  044%=      5-min Rain = 0
KCL2 192100Z 34023KT 07/M05 A3023 RMK A01 T00711045  RH  043%=      5-min Rain = 0
KCL2 192101Z 33019G24KT 07/M05 A3023 RMK A01 T00711045  RH  044%=      5-min Rain = 0
KCL2 192102Z 33020G26KT 07/M04 A3023 RMK A01 T00741041  RH  044%=      5-min Rain = 0
KCL2 192103Z 33019KT 08/M04 A3023 RMK A01 T00761042  RH  043%=      5-min Rain = 0
KCL2 192104Z 32022KT 08/M04 A3023 RMK A01 T00771041  RH  043%=      5-min Rain = 0
KCL2 192105Z 33024KT 08/M04 A3022 RMK A01 T00781041  RH  043%=      5-min Rain = 0
KCL2 192106Z 34019G24KT 08/M04 A3023 RMK A01 T00761043  RH  043%=      5-min Rain = 0
KCL2 192107Z 34022KT 08/M04 A3022 RMK A01 T00751042  RH  043%=      5-min Rain = 0
KCL2 192108Z 34021KT 08/M04 A3023 RMK A01 T00751041  RH  044%=      5-min Rain = 0
KCL2 192109Z 33022G28KT 07/M04 A3023 RMK A01 T00741041  RH  044%=      5-min Rain = 0
KCL2 192110Z 33024KT 07/M04 A3022 RMK A01 T00741041  RH  044%=      5-min Rain = 0
KCL2 192111Z 33022KT 08/M04 A3022 RMK A01 T00751041  RH  044%=      5-min Rain = 0
KCL2 192112Z 34023KT 08/M04 A3022 RMK A01 T00751040  RH  044%=      5-min Rain = 0
KCL2 192113Z 33022G28KT 08/M04 A3023 RMK A01 T00761040  RH  044%=      5-min Rain = 0
KCL2 192114Z 33022G28KT 08/M04 A3023 RMK A01 T00761040  RH  044%=      5-min Rain = 0
KCL2 192115Z 34020G27KT 08/M04 A3023 RMK A01 T00751041  RH  044%=      5-min Rain = 0
KCL2 192116Z 33020KT 08/M04 A3023 RMK A01 T00751038  RH  045%=      5-min Rain = 0
KCL2 192117Z 33021KT 08/M04 A3023 RMK A01 T00761039  RH  044%=      5-min Rain = 0
KCL2 192118Z 34020KT 08/M04 A3023 RMK A01 T00751039  RH  044%=      5-min Rain = 0
KCL2 192119Z 34017KT 07/M04 A3023 RMK A01 T00741038  RH  045%=      5-min Rain = 0
KCL2 192120Z 34017KT 07/M04 A3023 RMK A01 T00741038  RH  045%=      5-min Rain = 0
KCL2 192121Z 33017KT 08/M04 A3023 RMK A01 T00751037  RH  045%=      5-min Rain = 0
KCL2 192122Z 33017G22KT 08/M04 A3023 RMK A01 T00771035  RH  045%=      5-min Rain = 0
KCL2 192123Z 34019G26KT 08/M04 A3023 RMK A01 T00791035  RH  044%=      5-min Rain = 0
KCL2 192124Z 35018KT 08/M03 A3023 RMK A01 T00791034  RH  045%=      5-min Rain = 0
KCL2 192125Z 34021KT 08/M03 A3023 RMK A01 T00801034  RH  044%=      5-min Rain = 0
KCL2 192126Z 33025KT 08/M03 A3023 RMK A01 T00791034  RH  045%=      5-min Rain = 0
KCL2 192127Z 33020KT 08/M03 A3023 RMK A01 T00791034  RH  045%=      5-min Rain = 0
KCL2 192128Z 33022G27KT 08/M03 A3023 RMK A01 T00791034  RH  045%=      5-min Rain = 0
KCL2 192129Z 32021KT 08/M04 A3023 RMK A01 T00791035  RH  044%=      5-min Rain = 0
KCL2 192130Z 32021KT 08/M04 A3023 RMK A01 T00791035  RH  045%=      5-min Rain = 0
KCL2 192131Z 32018KT 08/M03 A3023 RMK A01 T00801032  RH  045%=      5-min Rain = 0
KCL2 192132Z 32017G24KT 08/M03 A3023 RMK A01 T00811032  RH  045%=      5-min Rain = 0
KCL2 192133Z 33015KT 08/M03 A3023 RMK A01 T00831029  RH  045%=      5-min Rain = 0
KCL2 192134Z 33017KT 09/M03 A3023 RMK A01 T00851028  RH  045%=      5-min Rain = 0
KCL2 192135Z 33016KT 09/M03 A3023 RMK A01 T00861030  RH  044%=      5-min Rain = 0
KCL2 192136Z 32021KT 09/M03 A3023 RMK A01 T00851030  RH  044%=      5-min Rain = 0
KCL2 192137Z 32020KT 08/M04 A3023 RMK A01 T00831035  RH  043%=      5-min Rain = 0
KCL2 192138Z 34015KT 08/M03 A3023 RMK A01 T00821033  RH  044%=      5-min Rain = 0
KCL2 192139Z 34016G23KT 08/M03 A3023 RMK A01 T00831032  RH  044%=      5-min Rain = 0
KCL2 192140Z 33017KT 08/M03 A3023 RMK A01 T00841031  RH  044%=      5-min Rain = 0
KCL2 192141Z 32019KT 09/M03 A3023 RMK A01 T00851032  RH  044%=      5-min Rain = 0
KCL2 192142Z 33022KT 08/M04 A3023 RMK A01 T00841036  RH  043%=      5-min Rain = 0
KCL2 192143Z 32019G24KT 08/M04 A3023 RMK A01 T00821038  RH  043%=      5-min Rain = 0
KCL2 192144Z 33019G24KT 08/M04 A3023 RMK A01 T00811037  RH  043%=      5-min Rain = 0
KCL2 192145Z 33020G25KT 08/M04 A3023 RMK A01 T00821036  RH  043%=      5-min Rain = 0
KCL2 192146Z 33023G28KT 08/M04 A3023 RMK A01 T00821038  RH  042%=      5-min Rain = 0
KCL2 192147Z 33021KT 08/M04 A3024 RMK A01 T00801039  RH  043%=      5-min Rain = 0
KCL2 192148Z 33022KT 08/M04 A3023 RMK A01 T00791042  RH  042%=      5-min Rain = 0
KCL2 192149Z 33019G27KT 08/M04 A3024 RMK A01 T00781042  RH  042%=      5-min Rain = 0
KCL2 192150Z 33021G27KT 08/M04 A3023 RMK A01 T00781040  RH  043%=      5-min Rain = 0
KCL2 192151Z 33024KT 08/M04 A3023 RMK A01 T00771042  RH  042%=      5-min Rain = 0
KCL2 192152Z 33017G24KT 08/M04 A3023 RMK A01 T00761042  RH  043%=      5-min Rain = 0
KCL2 192153Z 33021G26KT 08/M04 A3024 RMK A01 T00781040  RH  043%=      5-min Rain = 0
KCL2 192154Z 34019G26KT 08/M04 A3024 RMK A01 T00791041  RH  042%=      5-min Rain = 0
KCL2 192155Z 34020G28KT 08/M04 A3024 RMK A01 T00781042  RH  042%=      5-min Rain = 0
KCL2 192156Z 34023KT 08/M04 A3024 RMK A01 T00771043  RH  042%=      5-min Rain = 0
KCL2 192157Z 33020KT 08/M04 A3024 RMK A01 T00761043  RH  043%=      5-min Rain = 0
KCL2 192158Z 33020KT 08/M04 A3024 RMK A01 T00781040  RH  043%=      5-min Rain = 0
KCL2 192159Z 32019KT 08/M04 A3023 RMK A01 T00781041  RH  043%=      5-min Rain = 0
KCL2 192200Z 34016G21KT 08/M04 A3024 RMK A01 T00791041  RH  043%=      5-min Rain = 0
KCL2 192201Z 34015KT 08/M04 A3024 RMK A01 T00791038  RH  043%=      5-min Rain = 0
KCL2 192202Z 32015KT 08/M04 A3024 RMK A01 T00811038  RH  043%=      5-min Rain = 0
KCL2 192203Z 32019G25KT 08/M04 A3024 RMK A01 T00821038  RH  042%=      5-min Rain = 0
KCL2 192204Z 33021KT 08/M04 A3024 RMK A01 T00831040  RH  042%=      5-min Rain = 0
KCL2 192205Z 33018G24KT 08/M04 A3024 RMK A01 T00801043  RH  041%=      5-min Rain = 0
KCL2 192206Z 32019KT 08/M04 A3024 RMK A01 T00791041  RH  042%=      5-min Rain = 0
KCL2 192207Z 32019G24KT 08/M04 A3024 RMK A01 T00791042  RH  042%=      5-min Rain = 0
KCL2 192208Z 33017KT 08/M04 A3024 RMK A01 T00791041  RH  042%=      5-min Rain = 0
KCL2 192209Z 33016KT 08/M04 A3024 RMK A01 T00791040  RH  043%=      5-min Rain = 0
KCL2 192210Z 34017G22KT 08/M04 A3024 RMK A01 T00791040  RH  043%=      5-min Rain = 0
KCL2 192211Z 33020KT 08/M04 A3024 RMK A01 T00791041  RH  043%=      5-min Rain = 0
KCL2 192212Z 33017KT 08/M04 A3024 RMK A01 T00781041  RH  043%=      5-min Rain = 0
KCL2 192213Z 33016KT 08/M04 A3024 RMK A01 T00781040  RH  043%=      5-min Rain = 0
KCL2 192214Z 32020KT 08/M04 A3024 RMK A01 T00791039  RH  043%=      5-min Rain = 0
KCL2 192215Z 32018KT 08/M04 A3024 RMK A01 T00791040  RH  043%=      5-min Rain = 0
KCL2 192216Z 33017KT 08/M04 A3024 RMK A01 T00781040  RH  043%=      5-min Rain = 0
KCL2 192217Z 33012KT 08/M04 A3024 RMK A01 T00791038  RH  044%=      5-min Rain = 0
KCL2 192218Z 34019KT 08/M04 A3024 RMK A01 T00821035  RH  043%=      5-min Rain = 0
KCL2 192219Z 33018KT 08/M04 A3024 RMK A01 T00811038  RH  043%=      5-min Rain = 0
KCL2 192220Z 34016KT 08/M04 A3024 RMK A01 T00791039  RH  043%=      5-min Rain = 0
KCL2 192221Z 33017G22KT 08/M04 A3024 RMK A01 T00781039  RH  043%=      5-min Rain = 0
KCL2 192222Z 33016G21KT 08/M04 A3024 RMK A01 T00781039  RH  043%=      5-min Rain = 0
KCL2 192223Z 33020G25KT 08/M04 A3024 RMK A01 T00781039  RH  043%=      5-min Rain = 0
KCL2 192224Z 33023KT 08/M04 A3024 RMK A01 T00781038  RH  044%=      5-min Rain = 0
KCL2 192225Z 33017KT 08/M04 A3024 RMK A01 T00781038  RH  044%=      5-min Rain = 0
KCL2 192226Z 32018KT 08/M04 A3024 RMK A01 T00791037  RH  044%=      5-min Rain = 0
KCL2 192227Z 33017G22KT 08/M04 A3024 RMK A01 T00791037  RH  044%=      5-min Rain = 0
KCL2 192228Z 32021KT 08/M04 A3025 RMK A01 T00791037  RH  044%=      5-min Rain = 0
KCL2 192229Z 32021KT 08/M04 A3025 RMK A01 T00781038  RH  044%=      5-min Rain = 0
KCL2 192230Z 33019KT 08/M04 A3025 RMK A01 T00771039  RH  044%=      5-min Rain = 0
KCL2 192231Z 33019KT 08/M04 A3025 RMK A01 T00761038  RH  044%=      5-min Rain = 0
KCL2 192232Z 33019G24KT 08/M04 A3025 RMK A01 T00761037  RH  045%=      5-min Rain = 0
KCL2 192233Z 33019G24KT 08/M04 A3025 RMK A01 T00771036  RH  045%=      5-min Rain = 0
KCL2 192234Z 33017KT 08/M04 A3025 RMK A01 T00771036  RH  045%=      5-min Rain = 0
KCL2 192235Z 33017G22KT 08/M04 A3025 RMK A01 T00771036  RH  044%=      5-min Rain = 0
KCL2 192236Z 33016KT 08/M04 A3025 RMK A01 T00771036  RH  045%=      5-min Rain = 0
KCL2 192237Z 33022KT 08/M04 A3025 RMK A01 T00771036  RH  044%=      5-min Rain = 0
KCL2 192238Z 33022KT 08/M04 A3025 RMK A01 T00781038  RH  044%=      5-min Rain = 0
KCL2 192239Z 33018G23KT 08/M04 A3025 RMK A01 T00771037  RH  044%=      5-min Rain = 0
KCL2 192240Z 34017G25KT 08/M04 A3025 RMK A01 T00771036  RH  044%=      5-min Rain = 0
KCL2 192241Z 34019KT 08/M04 A3025 RMK A01 T00771038  RH  044%=      5-min Rain = 0
KCL2 192242Z 34017KT 08/M04 A3025 RMK A01 T00771038  RH  044%=      5-min Rain = 0
KCL2 192243Z 33013KT 08/M04 A3025 RMK A01 T00761037  RH  044%=      5-min Rain = 0
KCL2 192244Z 33017G23KT 08/M04 A3025 RMK A01 T00771037  RH  044%=      5-min Rain = 0
KCL2 192245Z 33017G22KT 08/M04 A3025 RMK A01 T00781037  RH  044%=      5-min Rain = 0
KCL2 192246Z 33018G25KT 08/M04 A3025 RMK A01 T00781037  RH  044%=      5-min Rain = 0
KCL2 192247Z 33018G23KT 08/M04 A3025 RMK A01 T00771039  RH  043%=      5-min Rain = 0
KCL2 192248Z 34019KT 08/M04 A3025 RMK A01 T00761040  RH  043%=      5-min Rain = 0
KCL2 192249Z 34018G23KT 08/M04 A3025 RMK A01 T00751041  RH  044%=      5-min Rain = 0
KCL2 192250Z 33020KT 08/M04 A3025 RMK A01 T00751041  RH  044%=      5-min Rain = 0
KCL2 192251Z 33022KT 07/M04 A3025 RMK A01 T00741042  RH  043%=      5-min Rain = 0
KCL2 192252Z 33019G25KT 07/M04 A3025 RMK A01 T00741042  RH  043%=      5-min Rain = 0
KCL2 192253Z 33020G25KT 07/M04 A3025 RMK A01 T00741042  RH  043%=      5-min Rain = 0
KCL2 192254Z 33020KT 07/M04 A3025 RMK A01 T00741042  RH  043%=      5-min Rain = 0
KCL2 192255Z 34017KT 07/M04 A3025 RMK A01 T00741042  RH  043%=      5-min Rain = 0
KCL2 192256Z 35018KT 07/M04 A3025 RMK A01 T00731042  RH  044%=      5-min Rain = 0
KCL2 192257Z 34016G21KT 07/M04 A3025 RMK A01 T00731041  RH  044%=      5-min Rain = 0
KCL2 192258Z 33017KT 07/M04 A3025 RMK A01 T00721041  RH  044%=      5-min Rain = 0
KCL2 192259Z 34019KT 07/M04 A3025 RMK A01 T00721041  RH  044%=      5-min Rain = 0
KCL2 192300Z 33019G25KT 07/M04 A3025 RMK A01 T00721042  RH  044%=      5-min Rain = 0
KCL2 192301Z 34019KT 07/M04 A3025 RMK A01 T00721041  RH  044%=      5-min Rain = 0
KCL2 192302Z 34020KT 07/M04 A3025 RMK A01 T00721042  RH  044%=      5-min Rain = 0
KCL2 192303Z 34021KT 07/M04 A3025 RMK A01 T00711042  RH  044%=      5-min Rain = 0
KCL2 192304Z 34017KT 07/M04 A3025 RMK A01 T00711041  RH  044%=      5-min Rain = 0
KCL2 192305Z 34017KT 07/M04 A3025 RMK A01 T00721040  RH  045%=      5-min Rain = 0
KCL2 192306Z 34019KT 07/M04 A3025 RMK A01 T00711040  RH  045%=      5-min Rain = 0
KCL2 192307Z 35015KT 07/M04 A3025 RMK A01 T00711040  RH  045%=      5-min Rain = 0
KCL2 192308Z 34017KT 07/M04 A3025 RMK A01 T00711039  RH  045%=      5-min Rain = 0
KCL2 192309Z 35017G23KT 07/M04 A3025 RMK A01 T00711040  RH  045%=      5-min Rain = 0
KCL2 192310Z 34013G19KT 07/M04 A3025 RMK A01 T00711039  RH  046%=      5-min Rain = 0
KCL2 192311Z 34013KT 07/M04 A3025 RMK A01 T00711038  RH  046%=      5-min Rain = 0
KCL2 192312Z 34013KT 07/M04 A3025 RMK A01 T00711037  RH  046%=      5-min Rain = 0
KCL2 192313Z 34015KT 07/M04 A3025 RMK A01 T00701038  RH  046%=      5-min Rain = 0
KCL2 192314Z 34011KT 07/M04 A3025 RMK A01 T00701038  RH  046%=      5-min Rain = 0
KCL2 192315Z 34012KT 07/M04 A3025 RMK A01 T00701037  RH  046%=      5-min Rain = 0
KCL2 192316Z 35013G18KT 07/M04 A3025 RMK A01 T00701037  RH  047%=      5-min Rain = 0
KCL2 192317Z 35016KT 07/M04 A3025 RMK A01 T00701038  RH  046%=      5-min Rain = 0
KCL2 192318Z 34014KT 07/M04 A3025 RMK A01 T00701037  RH  046%=      5-min Rain = 0
KCL2 192319Z 35018KT 07/M04 A3025 RMK A01 T00701037  RH  046%=      5-min Rain = 0
KCL2 192320Z 34017KT 07/M04 A3025 RMK A01 T00701038  RH  046%=      5-min Rain = 0
KCL2 192321Z 35014KT 07/M04 A3025 RMK A01 T00691038  RH  046%=      5-min Rain = 0
KCL2 192322Z 35013KT 07/M04 A3025 RMK A01 T00691038  RH  047%=      5-min Rain = 0
KCL2 192323Z 35014G19KT 07/M04 A3025 RMK A01 T00681037  RH  047%=      5-min Rain = 0
KCL2 192324Z 35017KT 07/M04 A3025 RMK A01 T00681039  RH  047%=      5-min Rain = 0
KCL2 192325Z 35017KT 07/M04 A3025 RMK A01 T00681039  RH  046%=      5-min Rain = 0
KCL2 192326Z 35014KT 07/M04 A3025 RMK A01 T00681039  RH  047%=      5-min Rain = 0
KCL2 192327Z 35012KT 07/M04 A3025 RMK A01 T00671038  RH  047%=      5-min Rain = 0
KCL2 192328Z 35014KT 07/M04 A3025 RMK A01 T00671038  RH  047%=      5-min Rain = 0
KCL2 192329Z 35014KT 07/M04 A3025 RMK A01 T00671038  RH  047%=      5-min Rain = 0
KCL2 192330Z 34014KT 07/M04 A3025 RMK A01 T00671038  RH  047%=      5-min Rain = 0
KCL2 192331Z 35020KT 07/M04 A3025 RMK A01 T00671039  RH  047%=      5-min Rain = 0
KCL2 192332Z 34016KT 07/M04 A3025 RMK A01 T00661040  RH  046%=      5-min Rain = 0
KCL2 192333Z 34016KT 07/M04 A3025 RMK A01 T00661040  RH  047%=      5-min Rain = 0
KCL2 192334Z 34017KT 07/M04 A3025 RMK A01 T00651041  RH  047%=      5-min Rain = 0
KCL2 192335Z 34014KT 07/M04 A3025 RMK A01 T00651040  RH  047%=      5-min Rain = 0
KCL2 192336Z 35015KT 07/M04 A3025 RMK A01 T00651040  RH  047%=      5-min Rain = 0
KCL2 192337Z 34014KT 06/M04 A3025 RMK A01 T00641040  RH  047%=      5-min Rain = 0
KCL2 192338Z 34016G21KT 06/M04 A3025 RMK A01 T00641039  RH  047%=      5-min Rain = 0
KCL2 192339Z 34016G22KT 06/M04 A3026 RMK A01 T00641040  RH  047%=      5-min Rain = 0
KCL2 192340Z 34017G22KT 06/M04 A3025 RMK A01 T00641040  RH  047%=      5-min Rain = 0
KCL2 192341Z 34015KT 06/M04 A3026 RMK A01 T00641040  RH  047%=      5-min Rain = 0
KCL2 192342Z 34012KT 06/M04 A3026 RMK A01 T00631040  RH  048%=      5-min Rain = 0
KCL2 192343Z 34015KT 06/M04 A3026 RMK A01 T00621040  RH  048%=      5-min Rain = 0
KCL2 192344Z 34014KT 06/M04 A3026 RMK A01 T00621040  RH  048%=      5-min Rain = 0
KCL2 192345Z 34017KT 06/M04 A3026 RMK A01 T00621040  RH  048%=      5-min Rain = 0
KCL2 192346Z 34014KT 06/M04 A3026 RMK A01 T00621040  RH  048%=      5-min Rain = 0
KCL2 192347Z 34016KT 06/M04 A3026 RMK A01 T00621040  RH  048%=      5-min Rain = 0
KCL2 192348Z 34015KT 06/M04 A3026 RMK A01 T00611040  RH  048%=      5-min Rain = 0
KCL2 192349Z 34015KT 06/M04 A3026 RMK A01 T00611040  RH  048%=      5-min Rain = 0
KCL2 192350Z 34013KT 06/M04 A3026 RMK A01 T00611039  RH  049%=      5-min Rain = 0
KCL2 192351Z 34015KT 06/M04 A3026 RMK A01 T00601040  RH  049%=      5-min Rain = 0
KCL2 192352Z 34014KT 06/M04 A3026 RMK A01 T00601040  RH  049%=      5-min Rain = 0
KCL2 192353Z 34013G18KT 06/M04 A3026 RMK A01 T00601040  RH  049%=      5-min Rain = 0
KCL2 192354Z 34011KT 06/M04 A3026 RMK A01 T00591040  RH  049%=      5-min Rain = 0
KCL2 192355Z 34012KT 06/M04 A3026 RMK A01 T00581040  RH  050%=      5-min Rain = 0
KCL2 192356Z 34012KT 06/M04 A3026 RMK A01 T00571039  RH  050%=      5-min Rain = 0
KCL2 192357Z 35011KT 06/M04 A3026 RMK A01 T00571038  RH  050%=      5-min Rain = 0
KCL2 192358Z 35013KT 06/M04 A3026 RMK A01 T00561039  RH  051%=      5-min Rain = 0
KCL2 192359Z 35014G19KT 06/M04 A3026 RMK A01 T00561039  RH  050%=      5-min Rain = 0
KCL2 200000Z 34016KT 06/M04 A3026 RMK A01 T00561040  RH  050%=      5-min Rain = 0
KCL2 200001Z 35015KT 06/M04 A3026 RMK A01 T00571040  RH  050%=      5-min Rain = 0
KCL2 200002Z 35014KT 06/M04 A3026 RMK A01 T00571040  RH  050%=      5-min Rain = 0
KCL2 200003Z 35013KT 06/M04 A3026 RMK A01 T00571040  RH  050%=      5-min Rain = 0
KCL2 200004Z 35013KT 06/M04 A3026 RMK A01 T00561039  RH  050%=      5-min Rain = 0
KCL2 200005Z 35011KT 06/M04 A3026 RMK A01 T00561040  RH  050%=      5-min Rain = 0
KCL2 200006Z 34011KT 06/M04 A3026 RMK A01 T00551039  RH  051%=      5-min Rain = 0
KCL2 200007Z 35010KT 05/M04 A3026 RMK A01 T00531039  RH  051%=      5-min Rain = 0
KCL2 200008Z 34011KT 05/M04 A3026 RMK A01 T00531039  RH  052%=      5-min Rain = 0
KCL2 200009Z 34011KT 05/M04 A3026 RMK A01 T00521040  RH  051%=      5-min Rain = 0
KCL2 200010Z 35012KT 05/M04 A3026 RMK A01 T00521039  RH  052%=      5-min Rain = 0
KCL2 200011Z 35011KT 05/M04 A3026 RMK A01 T00521039  RH  052%=      5-min Rain = 0
KCL2 200012Z 35010KT 05/M04 A3026 RMK A01 T00511039  RH  052%=      5-min Rain = 0
KCL2 200013Z 35011KT 05/M04 A3026 RMK A01 T00511039  RH  052%=      5-min Rain = 0
KCL2 200014Z 35011KT 05/M04 A3026 RMK A01 T00511040  RH  052%=      5-min Rain = 0
KCL2 200015Z 35012KT 05/M04 A3026 RMK A01 T00511040  RH  052%=      5-min Rain = 0
KCL2 200016Z 35010KT 05/M04 A3026 RMK A01 T00501040  RH  052%=      5-min Rain = 0
KCL2 200017Z 35011KT 05/M04 A3026 RMK A01 T00501040  RH  052%=      5-min Rain = 0
KCL2 200018Z 36010KT 05/M04 A3027 RMK A01 T00501040  RH  052%=      5-min Rain = 0
KCL2 200019Z 36008KT 05/M04 A3027 RMK A01 T00491040  RH  053%=      5-min Rain = 0
KCL2 200020Z 35010KT 05/M04 A3027 RMK A01 T00491040  RH  053%=      5-min Rain = 0
KCL2 200021Z 35009KT 05/M04 A3027 RMK A01 T00491040  RH  053%=      5-min Rain = 0
KCL2 200022Z 35008KT 05/M04 A3027 RMK A01 T00481040  RH  053%=      5-min Rain = 0
KCL2 200023Z 35008KT 05/M04 A3027 RMK A01 T00471040  RH  053%=      5-min Rain = 0
KCL2 200024Z 36007KT 05/M04 A3027 RMK A01 T00461040  RH  053%=      5-min Rain = 0
KCL2 200025Z 36008KT 05/M04 A3027 RMK A01 T00461040  RH  054%=      5-min Rain = 0
KCL2 200026Z 36006KT 04/M04 A3027 RMK A01 T00441040  RH  054%=      5-min Rain = 0
KCL2 200027Z 36007KT 04/M04 A3027 RMK A01 T00431040  RH  055%=      5-min Rain = 0
KCL2 200028Z 36007KT 04/M04 A3027 RMK A01 T00431040  RH  055%=      5-min Rain = 0
KCL2 200029Z 36007KT 04/M04 A3027 RMK A01 T00421039  RH  055%=      5-min Rain = 0
KCL2 200030Z 00008KT 04/M04 A3027 RMK A01 T00421040  RH  055%=      5-min Rain = 0
KCL2 200031Z 00008KT 04/M04 A3027 RMK A01 T00421039  RH  056%=      5-min Rain = 0
KCL2 200032Z 00007KT 04/M04 A3027 RMK A01 T00421039  RH  056%=      5-min Rain = 0
KCL2 200033Z 01007KT 04/M04 A3027 RMK A01 T00421039  RH  056%=      5-min Rain = 0
KCL2 200034Z 01007KT 04/M04 A3027 RMK A01 T00411039  RH  056%=      5-min Rain = 0
KCL2 200035Z 01008KT 04/M04 A3027 RMK A01 T00411039  RH  056%=      5-min Rain = 0
KCL2 200036Z 01006KT 04/M04 A3027 RMK A01 T00401039  RH  056%=      5-min Rain = 0
KCL2 200037Z 00007KT 04/M04 A3027 RMK A01 T00391039  RH  057%=      5-min Rain = 0
KCL2 200038Z 01007KT 04/M04 A3028 RMK A01 T00391039  RH  057%=      5-min Rain = 0
KCL2 200039Z 01007KT 04/M04 A3028 RMK A01 T00391039  RH  057%=      5-min Rain = 0
KCL2 200040Z 01005KT 04/M04 A3028 RMK A01 T00391039  RH  057%=      5-min Rain = 0
KCL2 200041Z 02005KT 04/M04 A3028 RMK A01 T00391039  RH  057%=      5-min Rain = 0
KCL2 200042Z 01005KT 04/M04 A3028 RMK A01 T00381039  RH  057%=      5-min Rain = 0
KCL2 200043Z 02005KT 04/M04 A3028 RMK A01 T00371039  RH  057%=      5-min Rain = 0
KCL2 200044Z 02006KT 04/M04 A3028 RMK A01 T00361039  RH  058%=      5-min Rain = 0
KCL2 200045Z 01005KT 04/M04 A3028 RMK A01 T00361039  RH  058%=      5-min Rain = 0
KCL2 200046Z 02007KT 04/M04 A3028 RMK A01 T00351040  RH  058%=      5-min Rain = 0
KCL2 200047Z 02005KT 04/M04 A3028 RMK A01 T00351040  RH  058%=      5-min Rain = 0
KCL2 200048Z 02006KT 04/M04 A3028 RMK A01 T00351039  RH  058%=      5-min Rain = 0
KCL2 200049Z 02006KT 03/M04 A3028 RMK A01 T00341040  RH  058%=      5-min Rain = 0
KCL2 200050Z 01005KT 03/M04 A3028 RMK A01 T00341040  RH  058%=      5-min Rain = 0
KCL2 200051Z 01005KT 03/M04 A3028 RMK A01 T00341040  RH  059%=      5-min Rain = 0
KCL2 200052Z 02005KT 03/M04 A3028 RMK A01 T00331040  RH  059%=      5-min Rain = 0
KCL2 200053Z 02005KT 03/M04 A3028 RMK A01 T00331040  RH  059%=      5-min Rain = 0
KCL2 200054Z 01005KT 03/M04 A3028 RMK A01 T00321040  RH  059%=      5-min Rain = 0
KCL2 200055Z 01005KT 03/M04 A3028 RMK A01 T00321041  RH  059%=      5-min Rain = 0
KCL2 200056Z 01005KT 03/M04 A3028 RMK A01 T00321042  RH  058%=      5-min Rain = 0
KCL2 200057Z 01004KT 03/M04 A3028 RMK A01 T00321042  RH  058%=      5-min Rain = 0
KCL2 200058Z 00005KT 03/M04 A3028 RMK A01 T00321042  RH  058%=      5-min Rain = 0
KCL2 200059Z 01004KT 03/M04 A3028 RMK A01 T00321042  RH  058%=      5-min Rain = 0
KCL2 200100Z 01004KT 03/M04 A3028 RMK A01 T00321042  RH  059%=      5-min Rain = 0
KCL2 200101Z 01004KT 03/M04 A3028 RMK A01 T00311042  RH  059%=      5-min Rain = 0
KCL2 200102Z 01003KT 03/M04 A3028 RMK A01 T00311042  RH  059%=      5-min Rain = 0
KCL2 200103Z 01003KT 03/M04 A3028 RMK A01 T00301042  RH  059%=      5-min Rain = 0
KCL2 200104Z 02005KT 03/M04 A3028 RMK A01 T00301042  RH  059%=      5-min Rain = 0
KCL2 200105Z 02005KT 03/M04 A3028 RMK A01 T00301043  RH  059%=      5-min Rain = 0
KCL2 200106Z 02005KT 03/M04 A3028 RMK A01 T00301043  RH  059%=      5-min Rain = 0
KCL2 200107Z 02005KT 03/M04 A3028 RMK A01 T00291042  RH  060%=      5-min Rain = 0
KCL2 200108Z 03005KT 03/M04 A3028 RMK A01 T00281042  RH  060%=      5-min Rain = 0
KCL2 200109Z 02006KT 03/M04 A3028 RMK A01 T00271042  RH  061%=      5-min Rain = 0
KCL2 200110Z 02006KT 03/M04 A3028 RMK A01 T00251042  RH  061%=      5-min Rain = 0
KCL2 200111Z 02006KT 03/M04 A3028 RMK A01 T00251042  RH  061%=      5-min Rain = 0
KCL2 200112Z 02006KT 02/M04 A3028 RMK A01 T00241042  RH  062%=      5-min Rain = 0
KCL2 200113Z 02005KT 02/M04 A3028 RMK A01 T00241042  RH  062%=      5-min Rain = 0
KCL2 200114Z 02006KT 02/M04 A3028 RMK A01 T00241042  RH  062%=      5-min Rain = 0
KCL2 200115Z 01005KT 02/M04 A3028 RMK A01 T00241042  RH  062%=      5-min Rain = 0
KCL2 200116Z 01005KT 02/M04 A3028 RMK A01 T00241042  RH  062%=      5-min Rain = 0
KCL2 200117Z 01005KT 02/M04 A3028 RMK A01 T00241042  RH  062%=      5-min Rain = 0
KCL2 200118Z 01006KT 02/M04 A3028 RMK A01 T00231043  RH  062%=      5-min Rain = 0
KCL2 200119Z 01006KT 02/M04 A3028 RMK A01 T00221043  RH  062%=      5-min Rain = 0
KCL2 200120Z 01006KT 02/M04 A3028 RMK A01 T00221044  RH  062%=      5-min Rain = 0
KCL2 200121Z 01006KT 02/M04 A3028 RMK A01 T00231044  RH  061%=      5-min Rain = 0
KCL2 200122Z 01006KT 02/M04 A3028 RMK A01 T00231044  RH  061%=      5-min Rain = 0
KCL2 200123Z 01006KT 02/M04 A3028 RMK A01 T00231043  RH  061%=      5-min Rain = 0
KCL2 200124Z 01006KT 02/M04 A3028 RMK A01 T00231044  RH  061%=      5-min Rain = 0
KCL2 200125Z 01005KT 02/M04 A3028 RMK A01 T00231044  RH  061%=      5-min Rain = 0
KCL2 200126Z 02006KT 02/M04 A3028 RMK A01 T00241044  RH  061%=      5-min Rain = 0
KCL2 200127Z 02006KT 02/M04 A3028 RMK A01 T00241044  RH  061%=      5-min Rain = 0
KCL2 200128Z 01007KT 02/M05 A3028 RMK A01 T00241045  RH  061%=      5-min Rain = 0
KCL2 200129Z 01007KT 02/M05 A3028 RMK A01 T00241045  RH  060%=      5-min Rain = 0
KCL2 200130Z 01007KT 02/M05 A3028 RMK A01 T00241046  RH  060%=      5-min Rain = 0
KCL2 200131Z 01007KT 02/M05 A3028 RMK A01 T00241046  RH  060%=      5-min Rain = 0
KCL2 200132Z 01007KT 02/M05 A3028 RMK A01 T00241046  RH  060%=      5-min Rain = 0
KCL2 200133Z 01007KT 02/M05 A3028 RMK A01 T00241046  RH  060%=      5-min Rain = 0
KCL2 200134Z 01007KT 02/M05 A3028 RMK A01 T00231046  RH  060%=      5-min Rain = 0
KCL2 200135Z 01006KT 02/M05 A3028 RMK A01 T00231046  RH  060%=      5-min Rain = 0
KCL2 200136Z 01007KT 02/M05 A3028 RMK A01 T00221046  RH  061%=      5-min Rain = 0
KCL2 200137Z 02006KT 02/M05 A3028 RMK A01 T00221046  RH  060%=      5-min Rain = 0
KCL2 200138Z 02006KT 02/M05 A3028 RMK A01 T00221046  RH  061%=      5-min Rain = 0
KCL2 200139Z 02006KT 02/M05 A3028 RMK A01 T00211046  RH  061%=      5-min Rain = 0
KCL2 200140Z 02006KT 02/M05 A3028 RMK A01 T00201045  RH  062%=      5-min Rain = 0
KCL2 200141Z 02006KT 02/M05 A3028 RMK A01 T00191045  RH  063%=      5-min Rain = 0
KCL2 200142Z 03006KT 02/M05 A3028 RMK A01 T00181045  RH  063%=      5-min Rain = 0
KCL2 200143Z 02006KT 02/M04 A3028 RMK A01 T00171044  RH  064%=      5-min Rain = 0
KCL2 200144Z 03007KT 02/M05 A3029 RMK A01 T00161046  RH  063%=      5-min Rain = 0
KCL2 200145Z 02007KT 02/M05 A3029 RMK A01 T00161046  RH  063%=      5-min Rain = 0
KCL2 200146Z 03007KT 02/M05 A3029 RMK A01 T00171047  RH  063%=      5-min Rain = 0
KCL2 200147Z 03006KT 02/M05 A3029 RMK A01 T00161048  RH  063%=      5-min Rain = 0
KCL2 200148Z 03007KT 02/M05 A3029 RMK A01 T00171048  RH  062%=      5-min Rain = 0
KCL2 200149Z 03007KT 02/M05 A3029 RMK A01 T00171049  RH  062%=      5-min Rain = 0
KCL2 200150Z 03007KT 02/M05 A3029 RMK A01 T00171050  RH  061%=      5-min Rain = 0
KCL2 200151Z 03007KT 02/M05 A3029 RMK A01 T00171050  RH  061%=      5-min Rain = 0
KCL2 200152Z 03007KT 02/M05 A3029 RMK A01 T00171051  RH  061%=      5-min Rain = 0
KCL2 200153Z 03007KT 02/M05 A3029 RMK A01 T00171051  RH  061%=      5-min Rain = 0
KCL2 200154Z 03007KT 02/M05 A3029 RMK A01 T00161053  RH  060%=      5-min Rain = 0
KCL2 200155Z 03007KT 02/M05 A3029 RMK A01 T00161053  RH  060%=      5-min Rain = 0
KCL2 200156Z 03007KT 02/M05 A3029 RMK A01 T00161053  RH  060%=      5-min Rain = 0
KCL2 200157Z 03008KT 02/M05 A3029 RMK A01 T00161054  RH  060%=      5-min Rain = 0
KCL2 200158Z 03008KT 02/M06 A3029 RMK A01 T00161055  RH  059%=      5-min Rain = 0
KCL2 200159Z 03007KT 02/M06 A3029 RMK A01 T00161056  RH  059%=      5-min Rain = 0
KCL2 200200Z 03007KT 02/M06 A3029 RMK A01 T00171056  RH  059%=      5-min Rain = 0
KCL2 200201Z 03007KT 02/M06 A303 RMK A01 T00161056  RH  059%=      5-min Rain = 0
KCL2 200202Z 03007KT 02/M06 A303 RMK A01 T00161056  RH  059%=      5-min Rain = 0
KCL2 200203Z 03007KT 02/M06 A303 RMK A01 T00161057  RH  058%=      5-min Rain = 0
KCL2 200204Z 03006KT 02/M06 A303 RMK A01 T00151057  RH  059%=      5-min Rain = 0
KCL2 200205Z 03006KT 01/M06 A303 RMK A01 T00141058  RH  059%=      5-min Rain = 0
KCL2 200206Z 03006KT 01/M06 A303 RMK A01 T00131059  RH  059%=      5-min Rain = 0
KCL2 200207Z 03005KT 01/M06 A303 RMK A01 T00131059  RH  059%=      5-min Rain = 0
KCL2 200208Z 04005KT 01/M06 A303 RMK A01 T00121060  RH  059%=      5-min Rain = 0
KCL2 200209Z 03005KT 01/M06 A303 RMK A01 T00121060  RH  059%=      5-min Rain = 0
KCL2 200210Z 03005KT 01/M06 A303 RMK A01 T00121061  RH  058%=      5-min Rain = 0
KCL2 200211Z 03005KT 01/M06 A303 RMK A01 T00121061  RH  058%=      5-min Rain = 0
KCL2 200212Z 03005KT 01/M06 A303 RMK A01 T00121061  RH  058%=      5-min Rain = 0
KCL2 200213Z 03004KT 01/M06 A303 RMK A01 T00121061  RH  058%=      5-min Rain = 0
KCL2 200214Z 03004KT 01/M06 A3031 RMK A01 T00121061  RH  058%=      5-min Rain = 0
KCL2 200215Z 02004KT 01/M06 A3031 RMK A01 T00121060  RH  058%=      5-min Rain = 0
KCL2 200216Z 02004KT 01/M06 A3031 RMK A01 T00121060  RH  059%=      5-min Rain = 0
KCL2 200217Z 02004KT 01/M06 A3031 RMK A01 T00121060  RH  059%=      5-min Rain = 0
KCL2 200218Z 02004KT 01/M06 A3031 RMK A01 T00121059  RH  059%=      5-min Rain = 0
KCL2 200219Z 02004KT 01/M06 A3031 RMK A01 T00121059  RH  059%=      5-min Rain = 0
KCL2 200220Z 02004KT 01/M06 A3031 RMK A01 T00121059  RH  059%=      5-min Rain = 0
KCL2 200221Z 03004KT 01/M06 A3031 RMK A01 T00121059  RH  059%=      5-min Rain = 0
KCL2 200222Z 02004KT 01/M06 A3031 RMK A01 T00121059  RH  059%=      5-min Rain = 0
KCL2 200223Z 02004KT 01/M06 A3031 RMK A01 T00121059  RH  059%=      5-min Rain = 0
KCL2 200224Z 02004KT 01/M06 A3031 RMK A01 T00121059  RH  059%=      5-min Rain = 0
KCL2 200225Z 03004KT 01/M06 A3031 RMK A01 T00121059  RH  059%=      5-min Rain = 0
KCL2 200226Z 03004KT 01/M06 A3031 RMK A01 T00121059  RH  059%=      5-min Rain = 0
KCL2 200227Z 03004KT 01/M06 A3031 RMK A01 T00111059  RH  059%=      5-min Rain = 0
KCL2 200228Z 03004KT 01/M06 A3031 RMK A01 T00121059  RH  059%=      5-min Rain = 0
KCL2 200229Z 03005KT 01/M06 A3031 RMK A01 T00111060  RH  059%=      5-min Rain = 0
KCL2 200230Z 03005KT 01/M06 A3031 RMK A01 T00101061  RH  059%=      5-min Rain = 0
KCL2 200231Z 03005KT 01/M06 A3031 RMK A01 T00101062  RH  059%=      5-min Rain = 0
KCL2 200232Z 03005KT 01/M06 A3031 RMK A01 T00091061  RH  060%=      5-min Rain = 0
KCL2 200233Z 03006KT 01/M06 A3031 RMK A01 T00071060  RH  061%=      5-min Rain = 0
KCL2 200234Z 03006KT 01/M06 A3031 RMK A01 T00061060  RH  061%=      5-min Rain = 0
KCL2 200235Z 03006KT 01/M06 A3031 RMK A01 T00061061  RH  061%=      5-min Rain = 0
KCL2 200236Z 03006KT 01/M06 A3031 RMK A01 T00061062  RH  061%=      5-min Rain = 0
KCL2 200237Z 03006KT 01/M06 A3032 RMK A01 T00051061  RH  061%=      5-min Rain = 0
KCL2 200238Z 03006KT 01/M06 A3032 RMK A01 T00051061  RH  061%=      5-min Rain = 0
KCL2 200239Z 03006KT 01/M06 A3032 RMK A01 T00051061  RH  061%=      5-min Rain = 0
KCL2 200240Z 03006KT 00/M06 A3032 RMK A01 T00041061  RH  062%=      5-min Rain = 0
KCL2 200241Z 03006KT 00/M06 A3031 RMK A01 T00031061  RH  062%=      5-min Rain = 0
KCL2 200242Z 04007KT 00/M06 A3031 RMK A01 T00021061  RH  062%=      5-min Rain = 0
KCL2 200243Z 04007KT 00/M06 A3031 RMK A01 T00021060  RH  063%=      5-min Rain = 0
KCL2 200244Z 04007KT 00/M06 A3031 RMK A01 T00021061  RH  063%=      5-min Rain = 0
KCL2 200245Z 04007KT 00/M06 A3031 RMK A01 T00021062  RH  062%=      5-min Rain = 0
KCL2 200246Z 04008KT 00/M06 A3031 RMK A01 T00031063  RH  061%=      5-min Rain = 0
KCL2 200247Z 04008KT 00/M06 A3031 RMK A01 T00041063  RH  061%=      5-min Rain = 0
KCL2 200248Z 05007KT 00/M06 A3031 RMK A01 T00041064  RH  060%=      5-min Rain = 0
KCL2 200249Z 05007KT 00/M07 A3031 RMK A01 T00041065  RH  060%=      5-min Rain = 0
KCL2 200250Z 04006KT 01/M07 A3031 RMK A01 T00051065  RH  059%=      5-min Rain = 0
KCL2 200251Z 05006KT 01/M07 A3031 RMK A01 T00051066  RH  059%=      5-min Rain = 0
KCL2 200252Z 05006KT 01/M07 A3031 RMK A01 T00051066  RH  059%=      5-min Rain = 0
KCL2 200253Z 05005KT 01/M07 A3031 RMK A01 T00051066  RH  059%=      5-min Rain = 0
KCL2 200254Z 05006KT 01/M07 A3031 RMK A01 T00051065  RH  059%=      5-min Rain = 0
KCL2 200255Z 05005KT 00/M07 A3031 RMK A01 T00041066  RH  059%=      5-min Rain = 0
KCL2 200256Z 05005KT 01/M07 A3031 RMK A01 T00051066  RH  059%=      5-min Rain = 0
KCL2 200257Z 05005KT 00/M07 A3031 RMK A01 T00041067  RH  059%=      5-min Rain = 0
KCL2 200258Z 04005KT 00/M07 A3031 RMK A01 T00041067  RH  059%=      5-min Rain = 0
KCL2 200259Z 05004KT 00/M07 A3031 RMK A01 T00041068  RH  059%=      5-min Rain = 0
KCL2 200300Z 05004KT 00/M07 A3031 RMK A01 T00041068  RH  058%=      5-min Rain = 0
KCL2 200301Z 05005KT 01/M07 A3031 RMK A01 T00051068  RH  058%=      5-min Rain = 0
KCL2 200302Z 05005KT 01/M07 A3031 RMK A01 T00051069  RH  058%=      5-min Rain = 0
KCL2 200303Z 05005KT 01/M07 A3031 RMK A01 T00061068  RH  058%=      5-min Rain = 0
KCL2 200304Z 05004KT 01/M07 A3031 RMK A01 T00061069  RH  057%=      5-min Rain = 0
KCL2 200305Z 05004KT 01/M07 A3031 RMK A01 T00061068  RH  058%=      5-min Rain = 0
KCL2 200306Z 05004KT 01/M07 A3031 RMK A01 T00051068  RH  058%=      5-min Rain = 0
KCL2 200307Z 06004KT 01/M07 A3031 RMK A01 T00051069  RH  058%=      5-min Rain = 0
KCL2 200308Z 06004KT 01/M07 A3031 RMK A01 T00061069  RH  057%=      5-min Rain = 0
KCL2 200309Z 05005KT 01/M07 A3031 RMK A01 T00061070  RH  057%=      5-min Rain = 0
KCL2 200310Z 06005KT 01/M07 A3031 RMK A01 T00051070  RH  057%=      5-min Rain = 0
KCL2 200311Z 06005KT 01/M07 A3031 RMK A01 T00051070  RH  057%=      5-min Rain = 0
KCL2 200312Z 06006KT 00/M07 A3031 RMK A01 T00041070  RH  057%=      5-min Rain = 0
KCL2 200313Z 06006KT 00/M07 A3031 RMK A01 T00041070  RH  058%=      5-min Rain = 0
KCL2 200314Z 06006KT 00/M07 A303 RMK A01 T00031070  RH  058%=      5-min Rain = 0
KCL2 200315Z 06007KT 00/M07 A303 RMK A01 T00031070  RH  058%=      5-min Rain = 0
KCL2 200316Z 06007KT 00/M07 A303 RMK A01 T00031070  RH  058%=      5-min Rain = 0
KCL2 200317Z 06007KT 00/M07 A303 RMK A01 T00041070  RH  058%=      5-min Rain = 0
KCL2 200318Z 06008KT 00/M07 A303 RMK A01 T00041069  RH  058%=      5-min Rain = 0
KCL2 200319Z 06008KT 01/M07 A303 RMK A01 T00051069  RH  058%=      5-min Rain = 0
KCL2 200320Z 06007KT 01/M07 A303 RMK A01 T00051069  RH  058%=      5-min Rain = 0
KCL2 200321Z 06007KT 01/M07 A303 RMK A01 T00051069  RH  058%=      5-min Rain = 0
KCL2 200322Z 06008KT 01/M07 A303 RMK A01 T00051068  RH  058%=      5-min Rain = 0
KCL2 200323Z 06007KT 00/M07 A303 RMK A01 T00041068  RH  058%=      5-min Rain = 0
KCL2 200324Z 05007KT 00/M07 A303 RMK A01 T00031068  RH  059%=      5-min Rain = 0
KCL2 200325Z 05008KT 00/M07 A303 RMK A01 T00031067  RH  059%=      5-min Rain = 0
KCL2 200326Z 05007KT 00/M07 A303 RMK A01 T00021068  RH  059%=      5-min Rain = 0
KCL2 200327Z 05007KT 00/M07 A303 RMK A01 T00021067  RH  060%=      5-min Rain = 0
KCL2 200328Z 05006KT 00/M07 A303 RMK A01 T00011068  RH  060%=      5-min Rain = 0
KCL2 200329Z 05007KT 00/M07 A303 RMK A01 T00011069  RH  059%=      5-min Rain = 0
KCL2 200330Z 05006KT 00/M07 A303 RMK A01 T00021069  RH  059%=      5-min Rain = 0
KCL2 200331Z 05007KT 00/M07 A303 RMK A01 T00011069  RH  059%=      5-min Rain = 0
KCL2 200332Z 05007KT 00/M07 A3031 RMK A01 T00011069  RH  059%=      5-min Rain = 0
KCL2 200333Z 05007KT 00/M07 A3031 RMK A01 T00011069  RH  059%=      5-min Rain = 0
KCL2 200334Z 05007KT 00/M07 A3031 RMK A01 T00011069  RH  059%=      5-min Rain = 0
KCL2 200335Z 05007KT 00/M07 A3031 RMK A01 T00011069  RH  060%=      5-min Rain = 0
KCL2 200336Z 05007KT 00/07 A3031 RMK A01 T00000-69  RH  060%=      5-min Rain = 0
KCL2 200337Z 05006KT 00/07 A3031 RMK A01 T00000-69  RH  060%=      5-min Rain = 0
KCL2 200338Z 05006KT 00/07 A3031 RMK A01 T00-00-69  RH  060%=      5-min Rain = 0
KCL2 200339Z 05006KT M00/M07 A3031 RMK A01 T10011069  RH  060%=      5-min Rain = 0
KCL2 200340Z 05006KT M00/M07 A3031 RMK A01 T10011069  RH  060%=      5-min Rain = 0
KCL2 200341Z 05007KT M00/M07 A3031 RMK A01 T10011069  RH  060%=      5-min Rain = 0
KCL2 200342Z 05007KT M00/M07 A3031 RMK A01 T10021069  RH  061%=      5-min Rain = 0
KCL2 200343Z 05007KT M00/M07 A3031 RMK A01 T10021069  RH  061%=      5-min Rain = 0
KCL2 200344Z 05007KT M00/M07 A3031 RMK A01 T10021070  RH  060%=      5-min Rain = 0
KCL2 200345Z 05007KT M00/M07 A3031 RMK A01 T10021069  RH  061%=      5-min Rain = 0
KCL2 200346Z 05008KT M00/M07 A3031 RMK A01 T10021069  RH  061%=      5-min Rain = 0
KCL2 200347Z 05007KT M00/M07 A3031 RMK A01 T10021070  RH  060%=      5-min Rain = 0
KCL2 200348Z 04007KT M00/M07 A3031 RMK A01 T10021069  RH  061%=      5-min Rain = 0
KCL2 200349Z 04007KT M00/M07 A3031 RMK A01 T10031069  RH  061%=      5-min Rain = 0
KCL2 200350Z 04007KT M00/M07 A3031 RMK A01 T10041069  RH  061%=      5-min Rain = 0
KCL2 200351Z 04007KT M00/M07 A3031 RMK A01 T10041069  RH  061%=      5-min Rain = 0
KCL2 200352Z 04008KT M00/M07 A3031 RMK A01 T10041069  RH  061%=      5-min Rain = 0
KCL2 200353Z 04007KT M00/M07 A3031 RMK A01 T10041069  RH  061%=      5-min Rain = 0
KCL2 200354Z 04007KT M01/M07 A3031 RMK A01 T10051070  RH  062%=      5-min Rain = 0
KCL2 200355Z 04007KT M01/M07 A3031 RMK A01 T10051070  RH  061%=      5-min Rain = 0
KCL2 200356Z 04007KT M00/M07 A3031 RMK A01 T10041071  RH  061%=      5-min Rain = 0
KCL2 200357Z 04007KT M00/M07 A3032 RMK A01 T10041071  RH  061%=      5-min Rain = 0
KCL2 200358Z 04007KT M00/M07 A3032 RMK A01 T10041071  RH  061%=      5-min Rain = 0
KCL2 200359Z 04007KT M00/M07 A3031 RMK A01 T10041071  RH  061%=      5-min Rain = 0
KCL2 200400Z 04007KT M00/M07 A3032 RMK A01 T10041071  RH  061%=      5-min Rain = 0
KCL2 200401Z 04006KT M01/M07 A3032 RMK A01 T10051071  RH  061%=      5-min Rain = 0
KCL2 200402Z 04006KT M01/M07 A3032 RMK A01 T10051071  RH  061%=      5-min Rain = 0
KCL2 200403Z 05006KT M01/M07 A3032 RMK A01 T10051071  RH  061%=      5-min Rain = 0
KCL2 200404Z 05006KT M01/M07 A3032 RMK A01 T10051072  RH  061%=      5-min Rain = 0
KCL2 200405Z 05006KT M01/M07 A3032 RMK A01 T10051072  RH  061%=      5-min Rain = 0
KCL2 200406Z 05007KT M01/M07 A3032 RMK A01 T10051072  RH  061%=      5-min Rain = 0
KCL2 200407Z 05007KT M01/M07 A3032 RMK A01 T10051073  RH  060%=      5-min Rain = 0
KCL2 200408Z 06007KT M00/M07 A3032 RMK A01 T10041073  RH  060%=      5-min Rain = 0
KCL2 200409Z 05006KT M00/M07 A3032 RMK A01 T10031073  RH  059%=      5-min Rain = 0
KCL2 200410Z 06006KT M00/M07 A3032 RMK A01 T10021072  RH  059%=      5-min Rain = 0
KCL2 200411Z 05007KT M00/M07 A3032 RMK A01 T10031071  RH  060%=      5-min Rain = 0
KCL2 200412Z 05007KT M00/M07 A3032 RMK A01 T10041071  RH  061%=      5-min Rain = 0
KCL2 200413Z 05007KT M00/M07 A3032 RMK A01 T10041070  RH  061%=      5-min Rain = 0
KCL2 200414Z 05007KT M00/M07 A3032 RMK A01 T10041070  RH  061%=      5-min Rain = 0
KCL2 200415Z 05006KT M00/M07 A3032 RMK A01 T10041071  RH  061%=      5-min Rain = 0
KCL2 200416Z 05007KT M01/M07 A3032 RMK A01 T10051071  RH  061%=      5-min Rain = 0
KCL2 200417Z 05006KT M01/M07 A3032 RMK A01 T10051071  RH  061%=      5-min Rain = 0
KCL2 200418Z 05006KT M01/M07 A3033 RMK A01 T10051071  RH  061%=      5-min Rain = 0
KCL2 200419Z 05005KT M01/M07 A3033 RMK A01 T10051071  RH  061%=      5-min Rain = 0
KCL2 200420Z 05005KT M01/M07 A3033 RMK A01 T10061071  RH  061%=      5-min Rain = 0
KCL2 200421Z 05006KT M01/M07 A3032 RMK A01 T10061072  RH  061%=      5-min Rain = 0
KCL2 200422Z 05005KT M01/M07 A3032 RMK A01 T10061071  RH  061%=      5-min Rain = 0
KCL2 200423Z 05005KT M01/M07 A3032 RMK A01 T10061071  RH  061%=      5-min Rain = 0
KCL2 200424Z 06005KT M01/M07 A3032 RMK A01 T10061071  RH  061%=      5-min Rain = 0
KCL2 200425Z 05005KT M01/M07 A3032 RMK A01 T10051072  RH  061%=      5-min Rain = 0
KCL2 200426Z 05005KT M01/M07 A3033 RMK A01 T10051072  RH  061%=      5-min Rain = 0
KCL2 200427Z 05004KT M01/M07 A3033 RMK A01 T10051072  RH  060%=      5-min Rain = 0
KCL2 200428Z 05004KT M01/M07 A3033 RMK A01 T10051072  RH  060%=      5-min Rain = 0
KCL2 200429Z 05004KT M01/M07 A3033 RMK A01 T10051072  RH  061%=      5-min Rain = 0
KCL2 200430Z 05005KT M01/M07 A3033 RMK A01 T10061073  RH  061%=      5-min Rain = 0
KCL2 200431Z 06004KT M01/M07 A3033 RMK A01 T10051073  RH  060%=      5-min Rain = 0
KCL2 200432Z 05004KT M01/M07 A3033 RMK A01 T10051073  RH  060%=      5-min Rain = 0
KCL2 200433Z 05004KT M01/M07 A3033 RMK A01 T10061073  RH  060%=      5-min Rain = 0
KCL2 200434Z 04004KT M01/M07 A3033 RMK A01 T10061073  RH  060%=      5-min Rain = 0
KCL2 200435Z 04005KT M01/M07 A3033 RMK A01 T10061073  RH  061%=      5-min Rain = 0
KCL2 200436Z 04004KT M01/M07 A3034 RMK A01 T10071074  RH  061%=      5-min Rain = 0
KCL2 200437Z 04004KT M01/M07 A3034 RMK A01 T10061074  RH  060%=      5-min Rain = 0
KCL2 200438Z 04003KT M01/M07 A3034 RMK A01 T10061074  RH  060%=      5-min Rain = 0
KCL2 200439Z 04004KT M01/M07 A3034 RMK A01 T10061073  RH  061%=      5-min Rain = 0
KCL2 200440Z 04003KT M01/M07 A3034 RMK A01 T10061073  RH  060%=      5-min Rain = 0
KCL2 200441Z 04004KT M01/M07 A3034 RMK A01 T10071073  RH  061%=      5-min Rain = 0
KCL2 200442Z 04004KT M01/M07 A3034 RMK A01 T10071073  RH  061%=      5-min Rain = 0
KCL2 200443Z 05004KT M01/M07 A3034 RMK A01 T10071074  RH  061%=      5-min Rain = 0
KCL2 200444Z 04003KT M01/M07 A3034 RMK A01 T10071074  RH  061%=      5-min Rain = 0
KCL2 200445Z 05003KT M01/M07 A3034 RMK A01 T10071074  RH  060%=      5-min Rain = 0
KCL2 200446Z 04003KT M01/M08 A3034 RMK A01 T10071075  RH  060%=      5-min Rain = 0
KCL2 200447Z 04003KT M01/M07 A3034 RMK A01 T10071074  RH  060%=      5-min Rain = 0
KCL2 200448Z 05003KT M01/M08 A3034 RMK A01 T10071075  RH  060%=      5-min Rain = 0
KCL2 200449Z 05004KT M01/M08 A3034 RMK A01 T10071075  RH  060%=      5-min Rain = 0
KCL2 200450Z 05004KT M01/M08 A3034 RMK A01 T10071075  RH  060%=      5-min Rain = 0
KCL2 200451Z 05004KT M01/M08 A3034 RMK A01 T10071075  RH  060%=      5-min Rain = 0
KCL2 200452Z 05004KT M01/M08 A3034 RMK A01 T10071075  RH  060%=      5-min Rain = 0
KCL2 200453Z 06004KT M01/M07 A3034 RMK A01 T10081074  RH  061%=      5-min Rain = 0
KCL2 200454Z 06004KT M01/M07 A3034 RMK A01 T10081074  RH  061%=      5-min Rain = 0
KCL2 200455Z 06004KT M01/M07 A3034 RMK A01 T10081074  RH  061%=      5-min Rain = 0
KCL2 200456Z 07004KT M01/M07 A3034 RMK A01 T10091073  RH  062%=      5-min Rain = 0
KCL2 200457Z 07004KT M01/M07 A3034 RMK A01 T10091073  RH  062%=      5-min Rain = 0
KCL2 200458Z 06004KT M01/M07 A3034 RMK A01 T10091073  RH  062%=      5-min Rain = 0
KCL2 200459Z 06004KT M01/M07 A3034 RMK A01 T10091073  RH  062%=      5-min Rain = 0
KCL2 200500Z 06004KT M01/M07 A3034 RMK A01 T10081074  RH  061%=      5-min Rain = 0
KCL2 200501Z 06005KT M01/M07 A3034 RMK A01 T10081074  RH  061%=      5-min Rain = 0
KCL2 200502Z 06005KT M01/M07 A3034 RMK A01 T10081073  RH  061%=      5-min Rain = 0
KCL2 200503Z 06005KT M01/M07 A3034 RMK A01 T10081072  RH  062%=      5-min Rain = 0
KCL2 200504Z 05005KT M01/M07 A3034 RMK A01 T10091072  RH  062%=      5-min Rain = 0
KCL2 200505Z 06004KT M01/M07 A3034 RMK A01 T10091071  RH  063%=      5-min Rain = 0
KCL2 200506Z 06004KT M01/M07 A3034 RMK A01 T10101071  RH  063%=      5-min Rain = 0
KCL2 200507Z 06004KT M01/M07 A3034 RMK A01 T10101071  RH  063%=      5-min Rain = 0
KCL2 200508Z 06005KT M01/M07 A3034 RMK A01 T10101072  RH  063%=      5-min Rain = 0
KCL2 200509Z 06005KT M01/M07 A3034 RMK A01 T10101072  RH  063%=      5-min Rain = 0
KCL2 200510Z 06005KT M01/M07 A3034 RMK A01 T10111072  RH  063%=      5-min Rain = 0
KCL2 200511Z 06005KT M01/M07 A3034 RMK A01 T10111071  RH  064%=      5-min Rain = 0
KCL2 200512Z 06005KT M01/M07 A3034 RMK A01 T10121071  RH  064%=      5-min Rain = 0
KCL2 200513Z 06004KT M01/M07 A3034 RMK A01 T10121070  RH  064%=      5-min Rain = 0
KCL2 200514Z 06004KT M01/M07 A3034 RMK A01 T10121071  RH  064%=      5-min Rain = 0
KCL2 200515Z 06004KT M01/M07 A3034 RMK A01 T10121072  RH  064%=      5-min Rain = 0
KCL2 200516Z 06004KT M01/M07 A3034 RMK A01 T10121072  RH  064%=      5-min Rain = 0
KCL2 200517Z 05004KT M01/M07 A3035 RMK A01 T10111072  RH  063%=      5-min Rain = 0
KCL2 200518Z 05003KT M01/M07 A3034 RMK A01 T10111072  RH  063%=      5-min Rain = 0
KCL2 200519Z 06003KT M01/M07 A3034 RMK A01 T10111072  RH  063%=      5-min Rain = 0
KCL2 200520Z 06004KT M01/M07 A3034 RMK A01 T10111073  RH  063%=      5-min Rain = 0
KCL2 200521Z 06004KT M01/M07 A3034 RMK A01 T10111073  RH  063%=      5-min Rain = 0
KCL2 200522Z 06003KT M01/M07 A3034 RMK A01 T10111073  RH  063%=      5-min Rain = 0
KCL2 200523Z 06003KT M01/M07 A3034 RMK A01 T10111073  RH  063%=      5-min Rain = 0
KCL2 200524Z 06003KT M01/M07 A3034 RMK A01 T10101073  RH  063%=      5-min Rain = 0
KCL2 200525Z 06003KT M01/M07 A3034 RMK A01 T10101073  RH  063%=      5-min Rain = 0
KCL2 200526Z 06003KT M01/M07 A3034 RMK A01 T10111072  RH  063%=      5-min Rain = 0
KCL2 200527Z 06003KT M01/M07 A3034 RMK A01 T10111073  RH  063%=      5-min Rain = 0
KCL2 200528Z 07003KT M01/M07 A3034 RMK A01 T10111073  RH  063%=      5-min Rain = 0
KCL2 200529Z 07003KT M01/M07 A3034 RMK A01 T10101073  RH  062%=      5-min Rain = 0
KCL2 200530Z 06003KT M01/M07 A3034 RMK A01 T10101073  RH  062%=      5-min Rain = 0
KCL2 200531Z 06003KT M01/M07 A3034 RMK A01 T10101073  RH  062%=      5-min Rain = 0
KCL2 200532Z 06004KT M01/M07 A3034 RMK A01 T10101074  RH  062%=      5-min Rain = 0
KCL2 200533Z 06003KT M01/M07 A3034 RMK A01 T10091074  RH  062%=      5-min Rain = 0
KCL2 200534Z 05004KT M01/M07 A3034 RMK A01 T10101073  RH  062%=      5-min Rain = 0
KCL2 200535Z 06004KT M01/M07 A3034 RMK A01 T10101072  RH  063%=      5-min Rain = 0
KCL2 200536Z 06004KT M01/M07 A3034 RMK A01 T10111072  RH  063%=      5-min Rain = 0
KCL2 200537Z 06004KT M01/M07 A3034 RMK A01 T10111071  RH  064%=      5-min Rain = 0
KCL2 200538Z 06003KT M01/M07 A3034 RMK A01 T10121071  RH  064%=      5-min Rain = 0
KCL2 200539Z 06003KT M01/M07 A3034 RMK A01 T10121072  RH  064%=      5-min Rain = 0
KCL2 200540Z 07004KT M01/M07 A3034 RMK A01 T10121072  RH  064%=      5-min Rain = 0
KCL2 200541Z 07004KT M01/M07 A3034 RMK A01 T10121072  RH  064%=      5-min Rain = 0
KCL2 200542Z 07004KT M01/M07 A3034 RMK A01 T10121072  RH  064%=      5-min Rain = 0
KCL2 200543Z 07005KT M01/M07 A3034 RMK A01 T10121072  RH  064%=      5-min Rain = 0
KCL2 200544Z 07005KT M01/M07 A3034 RMK A01 T10121072  RH  064%=      5-min Rain = 0
KCL2 200545Z 08004KT M01/M07 A3034 RMK A01 T10101072  RH  063%=      5-min Rain = 0
KCL2 200546Z 08004KT M01/M07 A3034 RMK A01 T10101072  RH  062%=      5-min Rain = 0
KCL2 200547Z 08004KT M01/M07 A3034 RMK A01 T10101072  RH  063%=      5-min Rain = 0
KCL2 200548Z 08004KT M01/M07 A3034 RMK A01 T10111071  RH  064%=      5-min Rain = 0
KCL2 200549Z 08004KT M01/M07 A3034 RMK A01 T10131071  RH  064%=      5-min Rain = 0
KCL2 200550Z 08005KT M01/M07 A3034 RMK A01 T10141072  RH  065%=      5-min Rain = 0
KCL2 200551Z 07004KT M01/M07 A3033 RMK A01 T10141072  RH  065%=      5-min Rain = 0
KCL2 200552Z 07004KT M02/M07 A3034 RMK A01 T10151073  RH  064%=      5-min Rain = 0
KCL2 200553Z 07006KT M01/M07 A3034 RMK A01 T10131074  RH  063%=      5-min Rain = 0
KCL2 200554Z 07007KT M01/M07 A3034 RMK A01 T10111074  RH  062%=      5-min Rain = 0
KCL2 200555Z 07006KT M01/M07 A3034 RMK A01 T10091074  RH  061%=      5-min Rain = 0
KCL2 200556Z 07006KT M01/M07 A3034 RMK A01 T10091074  RH  061%=      5-min Rain = 0
KCL2 200557Z 07007KT M01/M07 A3033 RMK A01 T10081074  RH  061%=      5-min Rain = 0
KCL2 200558Z 07007KT M01/M07 A3033 RMK A01 T10091074  RH  061%=      5-min Rain = 0
KCL2 200559Z 07006KT M01/M08 A3033 RMK A01 T10081075  RH  061%=      5-min Rain = 0

Page generated in 0.0365 seconds.